PWSweather.com
Personal Weather Stations
Station Observations
INOORDHO74
Beach, Egmond Aan ZeeNL 1931VT

BeachEgmond Aan ZeeNL 1931VT

Lat: 52.615216, Lon: 4.625994

Elevation: 5

Station Type: Davis Vantage Pro 2

http://www.webcamegmond.nl/het-weer-in-egmond/

Latest ConditionsUpdated 11:12:00 AM GMT+01:01 Tuesday, Oct 15, 2019
Currently Today's Max Today's Min Today's Average
Temperature 60.4°F15.8°C 61.9°F16.6°C 58.6°F14.8°C 59.9°F15.5°C
Dew Point 57.5°F14.2°C 59.6°F15.3°C 56.6°F13.7°C 57.4°F14.1°C
Winds 9.0 mph SW14.5 kmh SW 13.0 mph -20.9 kmh - - 8.5 mph 13.7 kmh
Wind Gusts 15.0 mph24.1 kmh 22.0 mph35.4 kmh - -
Humidity 90% 96% 89% 91%
Pressure 29.66 in1004.4 mb 29.66 in1004.4 mb 29.60 in1002.4 mb -
Hour Temp Dew Point Humidity Winds Wind Gusts Pressure Precip Precip Rate Daily Precip Total
11:12 AM 60.4°F15.8°C 57.5°F14.2°C 90% 9.0 mph SW14.5 kmh SW 15.0 mph24.1 kmh 29.66 in1004.4 mb 0.00 in0.0 mm 0.00 in0.0 mm 0.00 in0.0 mm
11:11 AM 60.4°F15.8°C 57.5°F14.2°C 90% 9.0 mph SW14.5 kmh SW 15.0 mph24.1 kmh 29.66 in1004.4 mb 0.00 in0.0 mm 0.00 in0.0 mm 0.00 in0.0 mm
11:10 AM 60.4°F15.8°C 57.5°F14.2°C 90% 9.0 mph SW14.5 kmh SW 15.0 mph24.1 kmh 29.66 in1004.4 mb 0.00 in0.0 mm 0.00 in0.0 mm 0.00 in0.0 mm
11:09 AM 60.4°F15.8°C 57.5°F14.2°C 90% 9.0 mph SW14.5 kmh SW 15.0 mph24.1 kmh 29.66 in1004.4 mb 0.00 in0.0 mm 0.00 in0.0 mm 0.00 in0.0 mm
11:08 AM 60.4°F15.8°C 57.5°F14.2°C 90% 9.0 mph SW14.5 kmh SW 15.0 mph24.1 kmh 29.66 in1004.4 mb 0.00 in0.0 mm 0.00 in0.0 mm 0.00 in0.0 mm
11:07 AM 60.4°F15.8°C 57.5°F14.2°C 90% 9.0 mph SW14.5 kmh SW 17.0 mph27.4 kmh 29.66 in1004.4 mb 0.00 in0.0 mm 0.00 in0.0 mm 0.00 in0.0 mm
11:06 AM 60.4°F15.8°C 57.5°F14.2°C 90% 9.0 mph SW14.5 kmh SW 17.0 mph27.4 kmh 29.66 in1004.4 mb 0.00 in0.0 mm 0.00 in0.0 mm 0.00 in0.0 mm
11:05 AM 60.4°F15.8°C 57.5°F14.2°C 90% 9.0 mph SW14.5 kmh SW 17.0 mph27.4 kmh 29.66 in1004.4 mb 0.00 in0.0 mm 0.00 in0.0 mm 0.00 in0.0 mm
11:04 AM 60.4°F15.8°C 57.5°F14.2°C 90% 9.0 mph SW14.5 kmh SW 17.0 mph27.4 kmh 29.66 in1004.4 mb 0.00 in0.0 mm 0.00 in0.0 mm 0.00 in0.0 mm
11:03 AM 60.4°F15.8°C 57.5°F14.2°C 90% 9.0 mph SW14.5 kmh SW 17.0 mph27.4 kmh 29.66 in1004.4 mb 0.00 in0.0 mm 0.00 in0.0 mm 0.00 in0.0 mm
11:02 AM 60.4°F15.8°C 57.5°F14.2°C 90% 9.0 mph SW14.5 kmh SW 17.0 mph27.4 kmh 29.66 in1004.4 mb 0.00 in0.0 mm 0.00 in0.0 mm 0.00 in0.0 mm
11:01 AM 60.4°F15.8°C 57.5°F14.2°C 90% 9.0 mph SW14.5 kmh SW 17.0 mph27.4 kmh 29.66 in1004.4 mb 0.00 in0.0 mm 0.00 in0.0 mm 0.00 in0.0 mm
11:00 AM 60.3°F15.7°C 57.3°F14.1°C 90% 9.0 mph SW14.5 kmh SW 17.0 mph27.4 kmh 29.66 in1004.4 mb 0.00 in0.0 mm 0.00 in0.0 mm 0.00 in0.0 mm
10:59 AM 60.4°F15.8°C 57.5°F14.2°C 90% 8.0 mph SW12.9 kmh SW 17.0 mph27.4 kmh 29.66 in1004.4 mb 0.00 in0.0 mm 0.00 in0.0 mm 0.00 in0.0 mm
10:58 AM 60.4°F15.8°C 57.5°F14.2°C 90% 8.0 mph SW12.9 kmh SW 17.0 mph27.4 kmh 29.66 in1004.4 mb 0.00 in0.0 mm 0.00 in0.0 mm 0.00 in0.0 mm
10:57 AM 60.4°F15.8°C 57.5°F14.2°C 90% 8.0 mph SW12.9 kmh SW 17.0 mph27.4 kmh 29.66 in1004.4 mb 0.00 in0.0 mm 0.00 in0.0 mm 0.00 in0.0 mm
10:56 AM 60.4°F15.8°C 57.5°F14.2°C 90% 8.0 mph SW12.9 kmh SW 15.0 mph24.1 kmh 29.66 in1004.4 mb 0.00 in0.0 mm 0.00 in0.0 mm 0.00 in0.0 mm
10:55 AM 60.4°F15.8°C 57.5°F14.2°C 90% 8.0 mph SW12.9 kmh SW 15.0 mph24.1 kmh 29.66 in1004.4 mb 0.00 in0.0 mm 0.00 in0.0 mm 0.00 in0.0 mm
10:54 AM 60.4°F15.8°C 57.5°F14.2°C 90% 8.0 mph SW12.9 kmh SW 15.0 mph24.1 kmh 29.66 in1004.4 mb 0.00 in0.0 mm 0.00 in0.0 mm 0.00 in0.0 mm
10:53 AM 60.4°F15.8°C 57.5°F14.2°C 90% 8.0 mph SW12.9 kmh SW 15.0 mph24.1 kmh 29.66 in1004.4 mb 0.00 in0.0 mm 0.00 in0.0 mm 0.00 in0.0 mm
10:52 AM 60.3°F15.7°C 57.3°F14.1°C 90% 8.0 mph SSW12.9 kmh SSW 15.0 mph24.1 kmh 29.66 in1004.4 mb 0.00 in0.0 mm 0.00 in0.0 mm 0.00 in0.0 mm
10:51 AM 60.4°F15.8°C 57.5°F14.2°C 90% 9.0 mph SSW14.5 kmh SSW 15.0 mph24.1 kmh 29.66 in1004.4 mb 0.00 in0.0 mm 0.00 in0.0 mm 0.00 in0.0 mm
10:50 AM 60.4°F15.8°C 57.5°F14.2°C 90% 9.0 mph SW14.5 kmh SW 15.0 mph24.1 kmh 29.66 in1004.4 mb 0.00 in0.0 mm 0.00 in0.0 mm 0.00 in0.0 mm
10:49 AM 60.4°F15.8°C 57.5°F14.2°C 90% 9.0 mph SW14.5 kmh SW 16.0 mph25.7 kmh 29.66 in1004.4 mb 0.00 in0.0 mm 0.00 in0.0 mm 0.00 in0.0 mm
10:48 AM 60.4°F15.8°C 57.8°F14.3°C 91% 9.0 mph SW14.5 kmh SW 16.0 mph25.7 kmh 29.66 in1004.4 mb 0.00 in0.0 mm 0.00 in0.0 mm 0.00 in0.0 mm
10:47 AM 60.4°F15.8°C 57.8°F14.3°C 91% 9.0 mph SSW14.5 kmh SSW 16.0 mph25.7 kmh 29.66 in1004.4 mb 0.00 in0.0 mm 0.00 in0.0 mm 0.00 in0.0 mm
10:46 AM 60.4°F15.8°C 57.8°F14.3°C 91% 9.0 mph SSW14.5 kmh SSW 16.0 mph25.7 kmh 29.66 in1004.4 mb 0.00 in0.0 mm 0.00 in0.0 mm 0.00 in0.0 mm
10:45 AM 60.3°F15.7°C 57.6°F14.2°C 91% 9.0 mph SSW14.5 kmh SSW 16.0 mph25.7 kmh 29.66 in1004.4 mb 0.00 in0.0 mm 0.00 in0.0 mm 0.00 in0.0 mm
10:44 AM 60.3°F15.7°C 57.6°F14.2°C 91% 9.0 mph SSW14.5 kmh SSW 16.0 mph25.7 kmh 29.65 in1004.1 mb 0.00 in0.0 mm 0.00 in0.0 mm 0.00 in0.0 mm
10:43 AM 60.3°F15.7°C 57.6°F14.2°C 91% 9.0 mph SSW14.5 kmh SSW 16.0 mph25.7 kmh 29.66 in1004.4 mb 0.00 in0.0 mm 0.00 in0.0 mm 0.00 in0.0 mm
10:42 AM 60.3°F15.7°C 57.6°F14.2°C 91% 9.0 mph SSW14.5 kmh SSW 16.0 mph25.7 kmh 29.66 in1004.4 mb 0.00 in0.0 mm 0.00 in0.0 mm 0.00 in0.0 mm
10:41 AM 60.3°F15.7°C 57.6°F14.2°C 91% 9.0 mph SW14.5 kmh SW 16.0 mph25.7 kmh 29.66 in1004.4 mb 0.00 in0.0 mm 0.00 in0.0 mm 0.00 in0.0 mm
10:40 AM 60.3°F15.7°C 57.6°F14.2°C 91% 10.0 mph SSW16.1 kmh SSW 16.0 mph25.7 kmh 29.66 in1004.4 mb 0.00 in0.0 mm 0.00 in0.0 mm 0.00 in0.0 mm
10:39 AM 60.3°F15.7°C 57.6°F14.2°C 91% 10.0 mph SSW16.1 kmh SSW 16.0 mph25.7 kmh 29.65 in1004.1 mb 0.00 in0.0 mm 0.00 in0.0 mm 0.00 in0.0 mm
10:38 AM 60.3°F15.7°C 57.6°F14.2°C 91% 10.0 mph SSW16.1 kmh SSW 16.0 mph25.7 kmh 29.65 in1004.1 mb 0.00 in0.0 mm 0.00 in0.0 mm 0.00 in0.0 mm
10:37 AM 60.1°F15.6°C 57.4°F14.1°C 91% 10.0 mph SSW16.1 kmh SSW 16.0 mph25.7 kmh 29.65 in1004.1 mb 0.00 in0.0 mm 0.00 in0.0 mm 0.00 in0.0 mm
10:36 AM 60.1°F15.6°C 57.4°F14.1°C 91% 10.0 mph SW16.1 kmh SW 16.0 mph25.7 kmh 29.66 in1004.4 mb 0.00 in0.0 mm 0.00 in0.0 mm 0.00 in0.0 mm
10:35 AM 60.1°F15.6°C 57.4°F14.1°C 91% 10.0 mph SW16.1 kmh SW 16.0 mph25.7 kmh 29.66 in1004.4 mb 0.00 in0.0 mm 0.00 in0.0 mm 0.00 in0.0 mm
10:34 AM 60.1°F15.6°C 57.4°F14.1°C 91% 10.0 mph SW16.1 kmh SW 16.0 mph25.7 kmh 29.66 in1004.4 mb 0.00 in0.0 mm 0.00 in0.0 mm 0.00 in0.0 mm
10:33 AM 59.9°F15.5°C 57.3°F14.1°C 91% 10.0 mph SW16.1 kmh SW 16.0 mph25.7 kmh 29.66 in1004.4 mb 0.00 in0.0 mm 0.00 in0.0 mm 0.00 in0.0 mm
10:32 AM 59.9°F15.5°C 57.3°F14.1°C 91% 10.0 mph SW16.1 kmh SW 16.0 mph25.7 kmh 29.66 in1004.4 mb 0.00 in0.0 mm 0.00 in0.0 mm 0.00 in0.0 mm
10:31 AM 59.7°F15.4°C 57.1°F13.9°C 91% 10.0 mph SW16.1 kmh SW 16.0 mph25.7 kmh 29.66 in1004.4 mb 0.00 in0.0 mm 0.00 in0.0 mm 0.00 in0.0 mm
10:30 AM 59.7°F15.4°C 57.1°F13.9°C 91% 11.0 mph SW17.7 kmh SW 16.0 mph25.7 kmh 29.66 in1004.4 mb 0.00 in0.0 mm 0.00 in0.0 mm 0.00 in0.0 mm
10:29 AM 59.9°F15.5°C 57.3°F14.1°C 91% 11.0 mph SW17.7 kmh SW 16.0 mph25.7 kmh 29.66 in1004.4 mb 0.00 in0.0 mm 0.00 in0.0 mm 0.00 in0.0 mm
10:28 AM 59.7°F15.4°C 57.1°F13.9°C 91% 11.0 mph SW17.7 kmh SW 18.0 mph29.0 kmh 29.66 in1004.4 mb 0.00 in0.0 mm 0.00 in0.0 mm 0.00 in0.0 mm
10:27 AM 59.7°F15.4°C 57.1°F13.9°C 91% 11.0 mph SW17.7 kmh SW 18.0 mph29.0 kmh 29.66 in1004.4 mb 0.00 in0.0 mm 0.00 in0.0 mm 0.00 in0.0 mm
10:26 AM 59.7°F15.4°C 57.1°F13.9°C 91% 11.0 mph SW17.7 kmh SW 18.0 mph29.0 kmh 29.66 in1004.4 mb 0.00 in0.0 mm 0.00 in0.0 mm 0.00 in0.0 mm
10:25 AM 59.9°F15.5°C 57.3°F14.1°C 91% 12.0 mph SW19.3 kmh SW 18.0 mph29.0 kmh 29.66 in1004.4 mb 0.00 in0.0 mm 0.00 in0.0 mm 0.00 in0.0 mm
10:24 AM 59.9°F15.5°C 57.3°F14.1°C 91% 12.0 mph SW19.3 kmh SW 18.0 mph29.0 kmh 29.66 in1004.4 mb 0.00 in0.0 mm 0.00 in0.0 mm 0.00 in0.0 mm
10:23 AM 59.9°F15.5°C 57.3°F14.1°C 91% 12.0 mph SW19.3 kmh SW 18.0 mph29.0 kmh 29.66 in1004.4 mb 0.00 in0.0 mm 0.00 in0.0 mm 0.00 in0.0 mm
10:22 AM 59.9°F15.5°C 57.3°F14.1°C 91% 12.0 mph SW19.3 kmh SW 20.0 mph32.2 kmh 29.66 in1004.4 mb 0.00 in0.0 mm 0.00 in0.0 mm 0.00 in0.0 mm
10:21 AM 59.9°F15.5°C 57.3°F14.1°C 91% 12.0 mph SW19.3 kmh SW 20.0 mph32.2 kmh 29.66 in1004.4 mb 0.00 in0.0 mm 0.00 in0.0 mm 0.00 in0.0 mm
10:20 AM 59.9°F15.5°C 57.3°F14.1°C 91% 12.0 mph SW19.3 kmh SW 20.0 mph32.2 kmh 29.66 in1004.4 mb 0.00 in0.0 mm 0.00 in0.0 mm 0.00 in0.0 mm
10:19 AM 59.9°F15.5°C 57.3°F14.1°C 91% 12.0 mph SW19.3 kmh SW 20.0 mph32.2 kmh 29.66 in1004.4 mb 0.00 in0.0 mm 0.00 in0.0 mm 0.00 in0.0 mm
10:18 AM 59.9°F15.5°C 57.3°F14.1°C 91% 12.0 mph SW19.3 kmh SW 20.0 mph32.2 kmh 29.66 in1004.4 mb 0.00 in0.0 mm 0.00 in0.0 mm 0.00 in0.0 mm
10:17 AM 59.9°F15.5°C 57.3°F14.1°C 91% 12.0 mph SW19.3 kmh SW 20.0 mph32.2 kmh 29.66 in1004.4 mb 0.00 in0.0 mm 0.00 in0.0 mm 0.00 in0.0 mm
10:16 AM 59.9°F15.5°C 57.3°F14.1°C 91% 12.0 mph SW19.3 kmh SW 20.0 mph32.2 kmh 29.66 in1004.4 mb 0.00 in0.0 mm 0.00 in0.0 mm 0.00 in0.0 mm
10:15 AM 59.9°F15.5°C 57.3°F14.1°C 91% 12.0 mph SW19.3 kmh SW 20.0 mph32.2 kmh 29.66 in1004.4 mb 0.00 in0.0 mm 0.00 in0.0 mm 0.00 in0.0 mm
10:14 AM 59.9°F15.5°C 57.3°F14.1°C 91% 12.0 mph SW19.3 kmh SW 20.0 mph32.2 kmh 29.66 in1004.4 mb 0.00 in0.0 mm 0.00 in0.0 mm 0.00 in0.0 mm
10:13 AM 59.9°F15.5°C 57.3°F14.1°C 91% 12.0 mph SW19.3 kmh SW 20.0 mph32.2 kmh 29.66 in1004.4 mb 0.00 in0.0 mm 0.00 in0.0 mm 0.00 in0.0 mm
10:12 AM 59.9°F15.5°C 57.3°F14.1°C 91% 12.0 mph SW19.3 kmh SW 19.0 mph30.6 kmh 29.66 in1004.4 mb 0.00 in0.0 mm 0.00 in0.0 mm 0.00 in0.0 mm
10:11 AM 59.9°F15.5°C 57.3°F14.1°C 91% 13.0 mph SW20.9 kmh SW 19.0 mph30.6 kmh 29.66 in1004.4 mb 0.00 in0.0 mm 0.00 in0.0 mm 0.00 in0.0 mm
10:10 AM 59.9°F15.5°C 57.3°F14.1°C 91% 13.0 mph SW20.9 kmh SW 19.0 mph30.6 kmh 29.66 in1004.4 mb 0.00 in0.0 mm 0.00 in0.0 mm 0.00 in0.0 mm
10:09 AM 59.9°F15.5°C 57.3°F14.1°C 91% 13.0 mph SW20.9 kmh SW 19.0 mph30.6 kmh 29.66 in1004.4 mb 0.00 in0.0 mm 0.00 in0.0 mm 0.00 in0.0 mm
10:08 AM 59.9°F15.5°C 57.3°F14.1°C 91% 13.0 mph SW20.9 kmh SW 19.0 mph30.6 kmh 29.66 in1004.4 mb 0.00 in0.0 mm 0.00 in0.0 mm 0.00 in0.0 mm
10:07 AM 59.9°F15.5°C 57.3°F14.1°C 91% 13.0 mph SW20.9 kmh SW 19.0 mph30.6 kmh 29.66 in1004.4 mb 0.00 in0.0 mm 0.00 in0.0 mm 0.00 in0.0 mm
10:06 AM 59.9°F15.5°C 57.3°F14.1°C 91% 13.0 mph SW20.9 kmh SW 19.0 mph30.6 kmh 29.66 in1004.4 mb 0.00 in0.0 mm 0.00 in0.0 mm 0.00 in0.0 mm
10:05 AM 60.1°F15.6°C 57.4°F14.1°C 91% 13.0 mph SW20.9 kmh SW 19.0 mph30.6 kmh 29.66 in1004.4 mb 0.00 in0.0 mm 0.00 in0.0 mm 0.00 in0.0 mm
10:04 AM 60.1°F15.6°C 57.4°F14.1°C 91% 13.0 mph SW20.9 kmh SW 19.0 mph30.6 kmh 29.66 in1004.4 mb 0.00 in0.0 mm 0.00 in0.0 mm 0.00 in0.0 mm
10:03 AM 60.1°F15.6°C 57.4°F14.1°C 91% 13.0 mph SW20.9 kmh SW 19.0 mph30.6 kmh 29.66 in1004.4 mb 0.00 in0.0 mm 0.00 in0.0 mm 0.00 in0.0 mm
10:02 AM 60.1°F15.6°C 57.4°F14.1°C 91% 13.0 mph SW20.9 kmh SW 22.0 mph35.4 kmh 29.66 in1004.4 mb 0.00 in0.0 mm 0.00 in0.0 mm 0.00 in0.0 mm
10:01 AM 60.1°F15.6°C 57.4°F14.1°C 91% 13.0 mph SW20.9 kmh SW 22.0 mph35.4 kmh 29.66 in1004.4 mb 0.00 in0.0 mm 0.00 in0.0 mm 0.00 in0.0 mm
10:00 AM 60.1°F15.6°C 57.4°F14.1°C 91% 13.0 mph SW20.9 kmh SW 22.0 mph35.4 kmh 29.66 in1004.4 mb 0.00 in0.0 mm 0.00 in0.0 mm 0.00 in0.0 mm
09:59 AM 60.1°F15.6°C 57.4°F14.1°C 91% 13.0 mph SW20.9 kmh SW 22.0 mph35.4 kmh 29.66 in1004.4 mb 0.00 in0.0 mm 0.00 in0.0 mm 0.00 in0.0 mm
09:58 AM 60.1°F15.6°C 57.4°F14.1°C 91% 13.0 mph SW20.9 kmh SW 22.0 mph35.4 kmh 29.66 in1004.4 mb 0.00 in0.0 mm 0.00 in0.0 mm 0.00 in0.0 mm
09:57 AM 60.1°F15.6°C 57.4°F14.1°C 91% 13.0 mph SW20.9 kmh SW 22.0 mph35.4 kmh 29.66 in1004.4 mb 0.00 in0.0 mm 0.00 in0.0 mm 0.00 in0.0 mm
09:56 AM 60.1°F15.6°C 57.4°F14.1°C 91% 13.0 mph SW20.9 kmh SW 22.0 mph35.4 kmh 29.66 in1004.4 mb 0.00 in0.0 mm 0.00 in0.0 mm 0.00 in0.0 mm
09:55 AM 60.1°F15.6°C 57.4°F14.1°C 91% 13.0 mph SW20.9 kmh SW 22.0 mph35.4 kmh 29.66 in1004.4 mb 0.00 in0.0 mm 0.00 in0.0 mm 0.00 in0.0 mm
09:54 AM 60.1°F15.6°C 57.4°F14.1°C 91% 12.0 mph SW19.3 kmh SW 22.0 mph35.4 kmh 29.66 in1004.4 mb 0.00 in0.0 mm 0.00 in0.0 mm 0.00 in0.0 mm
09:53 AM 60.1°F15.6°C 57.4°F14.1°C 91% 12.0 mph SW19.3 kmh SW 22.0 mph35.4 kmh 29.66 in1004.4 mb 0.00 in0.0 mm 0.00 in0.0 mm 0.00 in0.0 mm
09:52 AM 60.1°F15.6°C 57.4°F14.1°C 91% 12.0 mph SW19.3 kmh SW 21.0 mph33.8 kmh 29.66 in1004.4 mb 0.00 in0.0 mm 0.00 in0.0 mm 0.00 in0.0 mm
09:51 AM 60.1°F15.6°C 57.4°F14.1°C 91% 12.0 mph SW19.3 kmh SW 21.0 mph33.8 kmh 29.66 in1004.4 mb 0.00 in0.0 mm 0.00 in0.0 mm 0.00 in0.0 mm
09:50 AM 60.1°F15.6°C 57.4°F14.1°C 91% 12.0 mph SW19.3 kmh SW 21.0 mph33.8 kmh 29.66 in1004.4 mb 0.00 in0.0 mm 0.00 in0.0 mm 0.00 in0.0 mm
09:49 AM 60.1°F15.6°C 57.4°F14.1°C 91% 12.0 mph SW19.3 kmh SW 21.0 mph33.8 kmh 29.66 in1004.4 mb 0.00 in0.0 mm 0.00 in0.0 mm 0.00 in0.0 mm
09:48 AM 60.1°F15.6°C 57.4°F14.1°C 91% 12.0 mph SW19.3 kmh SW 21.0 mph33.8 kmh 29.66 in1004.4 mb 0.00 in0.0 mm 0.00 in0.0 mm 0.00 in0.0 mm
09:47 AM 60.1°F15.6°C 57.4°F14.1°C 91% 12.0 mph SW19.3 kmh SW 18.0 mph29.0 kmh 29.66 in1004.4 mb 0.00 in0.0 mm 0.00 in0.0 mm 0.00 in0.0 mm
09:46 AM 60.1°F15.6°C 57.4°F14.1°C 91% 11.0 mph SW17.7 kmh SW 20.0 mph32.2 kmh 29.66 in1004.4 mb 0.00 in0.0 mm 0.00 in0.0 mm 0.00 in0.0 mm
09:45 AM 60.1°F15.6°C 57.4°F14.1°C 91% 11.0 mph SW17.7 kmh SW 20.0 mph32.2 kmh 29.66 in1004.4 mb 0.00 in0.0 mm 0.00 in0.0 mm 0.00 in0.0 mm
09:44 AM 59.9°F15.5°C 57.3°F14.1°C 91% 11.0 mph SW17.7 kmh SW 20.0 mph32.2 kmh 29.66 in1004.4 mb 0.00 in0.0 mm 0.00 in0.0 mm 0.00 in0.0 mm
09:43 AM 59.9°F15.5°C 57.3°F14.1°C 91% 11.0 mph SW17.7 kmh SW 20.0 mph32.2 kmh 29.66 in1004.4 mb 0.00 in0.0 mm 0.00 in0.0 mm 0.00 in0.0 mm
09:42 AM 59.9°F15.5°C 57.3°F14.1°C 91% 12.0 mph SW19.3 kmh SW 20.0 mph32.2 kmh 29.66 in1004.4 mb 0.00 in0.0 mm 0.00 in0.0 mm 0.00 in0.0 mm
09:41 AM 59.7°F15.4°C 57.1°F13.9°C 91% 12.0 mph SW19.3 kmh SW 20.0 mph32.2 kmh 29.66 in1004.4 mb 0.00 in0.0 mm 0.00 in0.0 mm 0.00 in0.0 mm
09:40 AM 59.7°F15.4°C 57.1°F13.9°C 91% 12.0 mph SW19.3 kmh SW 20.0 mph32.2 kmh 29.66 in1004.4 mb 0.00 in0.0 mm 0.00 in0.0 mm 0.00 in0.0 mm
09:39 AM 59.9°F15.5°C 57.3°F14.1°C 91% 12.0 mph SW19.3 kmh SW 20.0 mph32.2 kmh 29.65 in1004.1 mb 0.00 in0.0 mm 0.00 in0.0 mm 0.00 in0.0 mm
09:38 AM 59.9°F15.5°C 57.3°F14.1°C 91% 12.0 mph SW19.3 kmh SW 20.0 mph32.2 kmh 29.65 in1004.1 mb 0.00 in0.0 mm 0.00 in0.0 mm 0.00 in0.0 mm
09:37 AM 59.9°F15.5°C 57.3°F14.1°C 91% 12.0 mph SW19.3 kmh SW 20.0 mph32.2 kmh 29.65 in1004.1 mb 0.00 in0.0 mm 0.00 in0.0 mm 0.00 in0.0 mm
09:36 AM 59.9°F15.5°C 57.3°F14.1°C 91% 12.0 mph SW19.3 kmh SW 18.0 mph29.0 kmh 29.66 in1004.4 mb 0.00 in0.0 mm 0.00 in0.0 mm 0.00 in0.0 mm
09:35 AM 59.9°F15.5°C 57.3°F14.1°C 91% 12.0 mph SW19.3 kmh SW 18.0 mph29.0 kmh 29.65 in1004.1 mb 0.00 in0.0 mm 0.00 in0.0 mm 0.00 in0.0 mm
09:34 AM 60.1°F15.6°C 57.4°F14.1°C 91% 12.0 mph SW19.3 kmh SW 19.0 mph30.6 kmh 29.66 in1004.4 mb 0.00 in0.0 mm 0.00 in0.0 mm 0.00 in0.0 mm
09:33 AM 60.1°F15.6°C 57.4°F14.1°C 91% 12.0 mph SW19.3 kmh SW 19.0 mph30.6 kmh 29.65 in1004.1 mb 0.00 in0.0 mm 0.00 in0.0 mm 0.00 in0.0 mm
09:32 AM 60.1°F15.6°C 57.4°F14.1°C 91% 13.0 mph SW20.9 kmh SW 19.0 mph30.6 kmh 29.65 in1004.1 mb 0.00 in0.0 mm 0.00 in0.0 mm 0.00 in0.0 mm
09:31 AM 60.1°F15.6°C 57.4°F14.1°C 91% 13.0 mph SW20.9 kmh SW 19.0 mph30.6 kmh 29.65 in1004.1 mb 0.00 in0.0 mm 0.00 in0.0 mm 0.00 in0.0 mm
09:30 AM 60.1°F15.6°C 57.4°F14.1°C 91% 13.0 mph SW20.9 kmh SW 19.0 mph30.6 kmh 29.65 in1004.1 mb 0.00 in0.0 mm 0.00 in0.0 mm 0.00 in0.0 mm
09:29 AM 60.1°F15.6°C 57.4°F14.1°C 91% 13.0 mph SW20.9 kmh SW 19.0 mph30.6 kmh 29.65 in1004.1 mb 0.00 in0.0 mm 0.00 in0.0 mm 0.00 in0.0 mm
09:28 AM 60.1°F15.6°C 57.4°F14.1°C 91% 13.0 mph SW20.9 kmh SW 20.0 mph32.2 kmh 29.65 in1004.1 mb 0.00 in0.0 mm 0.00 in0.0 mm 0.00 in0.0 mm
09:27 AM 60.1°F15.6°C 57.4°F14.1°C 91% 13.0 mph SW20.9 kmh SW 20.0 mph32.2 kmh 29.65 in1004.1 mb 0.00 in0.0 mm 0.00 in0.0 mm 0.00 in0.0 mm
09:26 AM 60.3°F15.7°C 57.6°F14.2°C 91% 13.0 mph SW20.9 kmh SW 20.0 mph32.2 kmh 29.65 in1004.1 mb 0.00 in0.0 mm 0.00 in0.0 mm 0.00 in0.0 mm
09:25 AM 60.3°F15.7°C 57.6°F14.2°C 91% 13.0 mph SW20.9 kmh SW 20.0 mph32.2 kmh 29.65 in1004.1 mb 0.00 in0.0 mm 0.00 in0.0 mm 0.00 in0.0 mm
09:24 AM 60.3°F15.7°C 57.6°F14.2°C 91% 13.0 mph SW20.9 kmh SW 20.0 mph32.2 kmh 29.65 in1004.1 mb 0.00 in0.0 mm 0.00 in0.0 mm 0.00 in0.0 mm
09:23 AM 60.3°F15.7°C 57.6°F14.2°C 91% 12.0 mph SW19.3 kmh SW 22.0 mph35.4 kmh 29.65 in1004.1 mb 0.00 in0.0 mm 0.00 in0.0 mm 0.00 in0.0 mm
09:22 AM 60.3°F15.7°C 57.6°F14.2°C 91% 12.0 mph SW19.3 kmh SW 22.0 mph35.4 kmh 29.65 in1004.1 mb 0.00 in0.0 mm 0.00 in0.0 mm 0.00 in0.0 mm
09:21 AM 60.1°F15.6°C 57.4°F14.1°C 91% 12.0 mph SW19.3 kmh SW 22.0 mph35.4 kmh 29.65 in1004.1 mb 0.00 in0.0 mm 0.00 in0.0 mm 0.00 in0.0 mm
09:20 AM 60.1°F15.6°C 57.4°F14.1°C 91% 12.0 mph SW19.3 kmh SW 22.0 mph35.4 kmh 29.66 in1004.4 mb 0.00 in0.0 mm 0.00 in0.0 mm 0.00 in0.0 mm
09:19 AM 60.1°F15.6°C 57.4°F14.1°C 91% 12.0 mph SW19.3 kmh SW 22.0 mph35.4 kmh 29.66 in1004.4 mb 0.00 in0.0 mm 0.00 in0.0 mm 0.00 in0.0 mm
09:18 AM 60.1°F15.6°C 57.4°F14.1°C 91% 12.0 mph SW19.3 kmh SW 22.0 mph35.4 kmh 29.66 in1004.4 mb 0.00 in0.0 mm 0.00 in0.0 mm 0.00 in0.0 mm
09:17 AM 60.1°F15.6°C 57.4°F14.1°C 91% 12.0 mph SW19.3 kmh SW 22.0 mph35.4 kmh 29.66 in1004.4 mb 0.00 in0.0 mm 0.00 in0.0 mm 0.00 in0.0 mm
09:16 AM 59.9°F15.5°C 57.3°F14.1°C 91% 12.0 mph SW19.3 kmh SW 22.0 mph35.4 kmh 29.66 in1004.4 mb 0.00 in0.0 mm 0.00 in0.0 mm 0.00 in0.0 mm
09:15 AM 59.9°F15.5°C 57.3°F14.1°C 91% 12.0 mph SW19.3 kmh SW 22.0 mph35.4 kmh 29.66 in1004.4 mb 0.00 in0.0 mm 0.00 in0.0 mm 0.00 in0.0 mm
09:14 AM 59.7°F15.4°C 57.1°F13.9°C 91% 12.0 mph SW19.3 kmh SW 22.0 mph35.4 kmh 29.65 in1004.1 mb 0.00 in0.0 mm 0.00 in0.0 mm 0.00 in0.0 mm
09:13 AM 59.7°F15.4°C 57.1°F13.9°C 91% 12.0 mph SW19.3 kmh SW 19.0 mph30.6 kmh 29.65 in1004.1 mb 0.00 in0.0 mm 0.00 in0.0 mm 0.00 in0.0 mm
09:12 AM 59.7°F15.4°C 57.1°F13.9°C 91% 12.0 mph SW19.3 kmh SW 19.0 mph30.6 kmh 29.65 in1004.1 mb 0.00 in0.0 mm 0.00 in0.0 mm 0.00 in0.0 mm
09:11 AM 59.7°F15.4°C 57.1°F13.9°C 91% 12.0 mph SW19.3 kmh SW 21.0 mph33.8 kmh 29.65 in1004.1 mb 0.00 in0.0 mm 0.00 in0.0 mm 0.00 in0.0 mm
09:10 AM 59.7°F15.4°C 57.1°F13.9°C 91% 12.0 mph SW19.3 kmh SW 21.0 mph33.8 kmh 29.65 in1004.1 mb 0.00 in0.0 mm 0.00 in0.0 mm 0.00 in0.0 mm
09:09 AM 59.7°F15.4°C 57.1°F13.9°C 91% 12.0 mph SW19.3 kmh SW 21.0 mph33.8 kmh 29.65 in1004.1 mb 0.00 in0.0 mm 0.00 in0.0 mm 0.00 in0.0 mm
09:08 AM 59.7°F15.4°C 57.1°F13.9°C 91% 11.0 mph SW17.7 kmh SW 21.0 mph33.8 kmh 29.65 in1004.1 mb 0.00 in0.0 mm 0.00 in0.0 mm 0.00 in0.0 mm
09:07 AM 59.7°F15.4°C 57.1°F13.9°C 91% 11.0 mph SW17.7 kmh SW 21.0 mph33.8 kmh 29.65 in1004.1 mb 0.00 in0.0 mm 0.00 in0.0 mm 0.00 in0.0 mm
09:06 AM 59.7°F15.4°C 57.1°F13.9°C 91% 11.0 mph SW17.7 kmh SW 21.0 mph33.8 kmh 29.65 in1004.1 mb 0.00 in0.0 mm 0.00 in0.0 mm 0.00 in0.0 mm
09:05 AM 59.7°F15.4°C 57.1°F13.9°C 91% 11.0 mph SW17.7 kmh SW 21.0 mph33.8 kmh 29.65 in1004.1 mb 0.00 in0.0 mm 0.00 in0.0 mm 0.00 in0.0 mm
09:04 AM 59.7°F15.4°C 57.1°F13.9°C 91% 11.0 mph SW17.7 kmh SW 21.0 mph33.8 kmh 29.65 in1004.1 mb 0.00 in0.0 mm 0.00 in0.0 mm 0.00 in0.0 mm
09:03 AM 59.7°F15.4°C 57.1°F13.9°C 91% 12.0 mph SW19.3 kmh SW 21.0 mph33.8 kmh 29.65 in1004.1 mb 0.00 in0.0 mm 0.00 in0.0 mm 0.00 in0.0 mm
09:02 AM 59.7°F15.4°C 57.1°F13.9°C 91% 12.0 mph SW19.3 kmh SW 21.0 mph33.8 kmh 29.65 in1004.1 mb 0.00 in0.0 mm 0.00 in0.0 mm 0.00 in0.0 mm
09:01 AM 59.7°F15.4°C 57.1°F13.9°C 91% 12.0 mph SW19.3 kmh SW 19.0 mph30.6 kmh 29.65 in1004.1 mb 0.00 in0.0 mm 0.00 in0.0 mm 0.00 in0.0 mm
09:00 AM 59.7°F15.4°C 57.1°F13.9°C 91% 12.0 mph SW19.3 kmh SW 19.0 mph30.6 kmh 29.65 in1004.1 mb 0.00 in0.0 mm 0.00 in0.0 mm 0.00 in0.0 mm
08:59 AM 59.7°F15.4°C 57.1°F13.9°C 91% 12.0 mph SW19.3 kmh SW 19.0 mph30.6 kmh 29.65 in1004.1 mb 0.00 in0.0 mm 0.00 in0.0 mm 0.00 in0.0 mm
08:58 AM 59.7°F15.4°C 57.1°F13.9°C 91% 12.0 mph SW19.3 kmh SW 19.0 mph30.6 kmh 29.65 in1004.1 mb 0.00 in0.0 mm 0.00 in0.0 mm 0.00 in0.0 mm
08:57 AM 59.7°F15.4°C 57.1°F13.9°C 91% 12.0 mph SW19.3 kmh SW 20.0 mph32.2 kmh 29.65 in1004.1 mb 0.00 in0.0 mm 0.00 in0.0 mm 0.00 in0.0 mm
08:56 AM 59.7°F15.4°C 57.1°F13.9°C 91% 13.0 mph SW20.9 kmh SW 20.0 mph32.2 kmh 29.65 in1004.1 mb 0.00 in0.0 mm 0.00 in0.0 mm 0.00 in0.0 mm
08:55 AM 59.7°F15.4°C 57.1°F13.9°C 91% 13.0 mph SW20.9 kmh SW 20.0 mph32.2 kmh 29.65 in1004.1 mb 0.00 in0.0 mm 0.00 in0.0 mm 0.00 in0.0 mm
08:54 AM 59.7°F15.4°C 57.1°F13.9°C 91% 13.0 mph SW20.9 kmh SW 20.0 mph32.2 kmh 29.65 in1004.1 mb 0.00 in0.0 mm 0.00 in0.0 mm 0.00 in0.0 mm
08:53 AM 59.7°F15.4°C 57.1°F13.9°C 91% 13.0 mph SW20.9 kmh SW 20.0 mph32.2 kmh 29.65 in1004.1 mb 0.00 in0.0 mm 0.00 in0.0 mm 0.00 in0.0 mm
08:52 AM 59.5°F15.3°C 56.9°F13.8°C 91% 13.0 mph SW20.9 kmh SW 20.0 mph32.2 kmh 29.65 in1004.1 mb 0.00 in0.0 mm 0.00 in0.0 mm 0.00 in0.0 mm
08:51 AM 59.5°F15.3°C 56.9°F13.8°C 91% 12.0 mph SW19.3 kmh SW 20.0 mph32.2 kmh 29.65 in1004.1 mb 0.00 in0.0 mm 0.00 in0.0 mm 0.00 in0.0 mm
08:50 AM 59.5°F15.3°C 56.9°F13.8°C 91% 12.0 mph SW19.3 kmh SW 20.0 mph32.2 kmh 29.65 in1004.1 mb 0.00 in0.0 mm 0.00 in0.0 mm 0.00 in0.0 mm
08:49 AM 59.5°F15.3°C 56.9°F13.8°C 91% 12.0 mph SW19.3 kmh SW 20.0 mph32.2 kmh 29.65 in1004.1 mb 0.00 in0.0 mm 0.00 in0.0 mm 0.00 in0.0 mm
08:48 AM 59.5°F15.3°C 56.9°F13.8°C 91% 12.0 mph SW19.3 kmh SW 20.0 mph32.2 kmh 29.64 in1003.7 mb 0.00 in0.0 mm 0.00 in0.0 mm 0.00 in0.0 mm
08:47 AM 59.5°F15.3°C 56.9°F13.8°C 91% 12.0 mph SW19.3 kmh SW 19.0 mph30.6 kmh 29.65 in1004.1 mb 0.00 in0.0 mm 0.00 in0.0 mm 0.00 in0.0 mm
08:46 AM 59.5°F15.3°C 56.9°F13.8°C 91% 12.0 mph SW19.3 kmh SW 19.0 mph30.6 kmh 29.64 in1003.7 mb 0.00 in0.0 mm 0.00 in0.0 mm 0.00 in0.0 mm
08:45 AM 59.5°F15.3°C 56.9°F13.8°C 91% 12.0 mph SW19.3 kmh SW 19.0 mph30.6 kmh 29.64 in1003.7 mb 0.00 in0.0 mm 0.00 in0.0 mm 0.00 in0.0 mm
08:44 AM 59.5°F15.3°C 56.9°F13.8°C 91% 12.0 mph SW19.3 kmh SW 19.0 mph30.6 kmh 29.64 in1003.7 mb 0.00 in0.0 mm 0.00 in0.0 mm 0.00 in0.0 mm
08:43 AM 59.5°F15.3°C 56.9°F13.8°C 91% 11.0 mph SW17.7 kmh SW 19.0 mph30.6 kmh 29.64 in1003.7 mb 0.00 in0.0 mm 0.00 in0.0 mm 0.00 in0.0 mm
08:42 AM 59.5°F15.3°C 56.9°F13.8°C 91% 11.0 mph SW17.7 kmh SW 20.0 mph32.2 kmh 29.64 in1003.7 mb 0.00 in0.0 mm 0.00 in0.0 mm 0.00 in0.0 mm
08:41 AM 59.7°F15.4°C 57.1°F13.9°C 91% 11.0 mph SW17.7 kmh SW 20.0 mph32.2 kmh 29.64 in1003.7 mb 0.00 in0.0 mm 0.00 in0.0 mm 0.00 in0.0 mm
08:40 AM 59.7°F15.4°C 57.1°F13.9°C 91% 11.0 mph SW17.7 kmh SW 20.0 mph32.2 kmh 29.64 in1003.7 mb 0.00 in0.0 mm 0.00 in0.0 mm 0.00 in0.0 mm
08:39 AM 59.7°F15.4°C 57.1°F13.9°C 91% 11.0 mph SW17.7 kmh SW 20.0 mph32.2 kmh 29.64 in1003.7 mb 0.00 in0.0 mm 0.00 in0.0 mm 0.00 in0.0 mm
08:38 AM 59.7°F15.4°C 57.1°F13.9°C 91% 10.0 mph SW16.1 kmh SW 20.0 mph32.2 kmh 29.64 in1003.7 mb 0.00 in0.0 mm 0.00 in0.0 mm 0.00 in0.0 mm
08:37 AM 59.7°F15.4°C 57.1°F13.9°C 91% 10.0 mph SW16.1 kmh SW 20.0 mph32.2 kmh 29.64 in1003.7 mb 0.00 in0.0 mm 0.00 in0.0 mm 0.00 in0.0 mm
08:36 AM 59.7°F15.4°C 57.1°F13.9°C 91% 10.0 mph SW16.1 kmh SW 20.0 mph32.2 kmh 29.64 in1003.7 mb 0.00 in0.0 mm 0.00 in0.0 mm 0.00 in0.0 mm
08:35 AM 59.7°F15.4°C 57.1°F13.9°C 91% 10.0 mph SW16.1 kmh SW 20.0 mph32.2 kmh 29.64 in1003.7 mb 0.00 in0.0 mm 0.00 in0.0 mm 0.00 in0.0 mm
08:34 AM 59.5°F15.3°C 56.9°F13.8°C 91% 10.0 mph SW16.1 kmh SW 20.0 mph32.2 kmh 29.64 in1003.7 mb 0.00 in0.0 mm 0.00 in0.0 mm 0.00 in0.0 mm
08:33 AM 59.5°F15.3°C 56.9°F13.8°C 91% 10.0 mph SW16.1 kmh SW 20.0 mph32.2 kmh 29.64 in1003.7 mb 0.00 in0.0 mm 0.00 in0.0 mm 0.00 in0.0 mm
08:32 AM 59.5°F15.3°C 56.9°F13.8°C 91% 9.0 mph SW14.5 kmh SW 18.0 mph29.0 kmh 29.64 in1003.7 mb 0.00 in0.0 mm 0.00 in0.0 mm 0.00 in0.0 mm
08:31 AM 59.5°F15.3°C 57.2°F14.0°C 92% 9.0 mph SW14.5 kmh SW 18.0 mph29.0 kmh 29.64 in1003.7 mb 0.00 in0.0 mm 0.00 in0.0 mm 0.00 in0.0 mm
08:30 AM 59.7°F15.4°C 57.4°F14.1°C 92% 9.0 mph SW14.5 kmh SW 15.0 mph24.1 kmh 29.64 in1003.7 mb 0.00 in0.0 mm 0.00 in0.0 mm 0.00 in0.0 mm
08:29 AM 59.5°F15.3°C 57.2°F14.0°C 92% 9.0 mph SW14.5 kmh SW 15.0 mph24.1 kmh 29.64 in1003.7 mb 0.00 in0.0 mm 0.00 in0.0 mm 0.00 in0.0 mm
08:28 AM 59.5°F15.3°C 57.2°F14.0°C 92% 9.0 mph SW14.5 kmh SW 15.0 mph24.1 kmh 29.64 in1003.7 mb 0.00 in0.0 mm 0.00 in0.0 mm 0.00 in0.0 mm
08:27 AM 59.5°F15.3°C 57.2°F14.0°C 92% 9.0 mph SW14.5 kmh SW 17.0 mph27.4 kmh 29.64 in1003.7 mb 0.00 in0.0 mm 0.00 in0.0 mm 0.00 in0.0 mm
08:26 AM 59.5°F15.3°C 57.2°F14.0°C 92% 8.0 mph SW12.9 kmh SW 17.0 mph27.4 kmh 29.64 in1003.7 mb 0.00 in0.0 mm 0.00 in0.0 mm 0.00 in0.0 mm
08:25 AM 59.5°F15.3°C 57.2°F14.0°C 92% 8.0 mph SW12.9 kmh SW 17.0 mph27.4 kmh 29.64 in1003.7 mb 0.00 in0.0 mm 0.00 in0.0 mm 0.00 in0.0 mm
08:24 AM 59.5°F15.3°C 57.2°F14.0°C 92% 8.0 mph SW12.9 kmh SW 17.0 mph27.4 kmh 29.64 in1003.7 mb 0.00 in0.0 mm 0.00 in0.0 mm 0.00 in0.0 mm
08:23 AM 59.5°F15.3°C 57.2°F14.0°C 92% 8.0 mph SW12.9 kmh SW 17.0 mph27.4 kmh 29.64 in1003.7 mb 0.00 in0.0 mm 0.00 in0.0 mm 0.00 in0.0 mm
08:22 AM 59.5°F15.3°C 57.2°F14.0°C 92% 8.0 mph SW12.9 kmh SW 17.0 mph27.4 kmh 29.64 in1003.7 mb 0.00 in0.0 mm 0.00 in0.0 mm 0.00 in0.0 mm
08:21 AM 59.5°F15.3°C 57.2°F14.0°C 92% 8.0 mph SW12.9 kmh SW 17.0 mph27.4 kmh 29.64 in1003.7 mb 0.00 in0.0 mm 0.00 in0.0 mm 0.00 in0.0 mm
08:20 AM 59.5°F15.3°C 57.2°F14.0°C 92% 8.0 mph SW12.9 kmh SW 17.0 mph27.4 kmh 29.64 in1003.7 mb 0.00 in0.0 mm 0.00 in0.0 mm 0.00 in0.0 mm
08:19 AM 59.5°F15.3°C 57.2°F14.0°C 92% 9.0 mph SSW14.5 kmh SSW 17.0 mph27.4 kmh 29.64 in1003.7 mb 0.00 in0.0 mm 0.00 in0.0 mm 0.00 in0.0 mm
08:18 AM 59.5°F15.3°C 57.2°F14.0°C 92% 9.0 mph SW14.5 kmh SW 17.0 mph27.4 kmh 29.64 in1003.7 mb 0.00 in0.0 mm 0.00 in0.0 mm 0.00 in0.0 mm
08:17 AM 59.5°F15.3°C 57.2°F14.0°C 92% 9.0 mph SW14.5 kmh SW 16.0 mph25.7 kmh 29.64 in1003.7 mb 0.00 in0.0 mm 0.00 in0.0 mm 0.00 in0.0 mm
08:16 AM 59.5°F15.3°C 57.2°F14.0°C 92% 9.0 mph SW14.5 kmh SW 16.0 mph25.7 kmh 29.64 in1003.7 mb 0.00 in0.0 mm 0.00 in0.0 mm 0.00 in0.0 mm
08:15 AM 59.5°F15.3°C 57.2°F14.0°C 92% 9.0 mph SW14.5 kmh SW 16.0 mph25.7 kmh 29.64 in1003.7 mb 0.00 in0.0 mm 0.00 in0.0 mm 0.00 in0.0 mm
08:14 AM 59.5°F15.3°C 57.2°F14.0°C 92% 9.0 mph SW14.5 kmh SW 16.0 mph25.7 kmh 29.64 in1003.7 mb 0.00 in0.0 mm 0.00 in0.0 mm 0.00 in0.0 mm
08:13 AM 59.5°F15.3°C 57.2°F14.0°C 92% 10.0 mph SW16.1 kmh SW 16.0 mph25.7 kmh 29.64 in1003.7 mb 0.00 in0.0 mm 0.00 in0.0 mm 0.00 in0.0 mm
08:12 AM 59.5°F15.3°C 57.2°F14.0°C 92% 10.0 mph SW16.1 kmh SW 16.0 mph25.7 kmh 29.64 in1003.7 mb 0.00 in0.0 mm 0.00 in0.0 mm 0.00 in0.0 mm
08:11 AM 59.5°F15.3°C 57.2°F14.0°C 92% 10.0 mph SW16.1 kmh SW 16.0 mph25.7 kmh 29.64 in1003.7 mb 0.00 in0.0 mm 0.00 in0.0 mm 0.00 in0.0 mm
08:10 AM 59.5°F15.3°C 57.2°F14.0°C 92% 10.0 mph SW16.1 kmh SW 16.0 mph25.7 kmh 29.64 in1003.7 mb 0.00 in0.0 mm 0.00 in0.0 mm 0.00 in0.0 mm
08:09 AM 59.5°F15.3°C 56.9°F13.8°C 91% 10.0 mph SW16.1 kmh SW 16.0 mph25.7 kmh 29.63 in1003.4 mb 0.00 in0.0 mm 0.00 in0.0 mm 0.00 in0.0 mm
08:08 AM 59.5°F15.3°C 56.9°F13.8°C 91% 10.0 mph SW16.1 kmh SW 16.0 mph25.7 kmh 29.63 in1003.4 mb 0.00 in0.0 mm 0.00 in0.0 mm 0.00 in0.0 mm
08:07 AM 59.5°F15.3°C 56.9°F13.8°C 91% 10.0 mph SW16.1 kmh SW 16.0 mph25.7 kmh 29.63 in1003.4 mb 0.00 in0.0 mm 0.00 in0.0 mm 0.00 in0.0 mm
08:06 AM 59.5°F15.3°C 56.9°F13.8°C 91% 9.0 mph SW14.5 kmh SW 17.0 mph27.4 kmh 29.63 in1003.4 mb 0.00 in0.0 mm 0.00 in0.0 mm 0.00 in0.0 mm
08:05 AM 59.5°F15.3°C 56.9°F13.8°C 91% 9.0 mph SW14.5 kmh SW 17.0 mph27.4 kmh 29.63 in1003.4 mb 0.00 in0.0 mm 0.00 in0.0 mm 0.00 in0.0 mm
08:04 AM 59.5°F15.3°C 57.2°F14.0°C 92% 9.0 mph SW14.5 kmh SW 17.0 mph27.4 kmh 29.63 in1003.4 mb 0.00 in0.0 mm 0.00 in0.0 mm 0.00 in0.0 mm
08:03 AM 59.5°F15.3°C 57.2°F14.0°C 92% 9.0 mph SW14.5 kmh SW 17.0 mph27.4 kmh 29.63 in1003.4 mb 0.00 in0.0 mm 0.00 in0.0 mm 0.00 in0.0 mm
08:02 AM 59.5°F15.3°C 57.2°F14.0°C 92% 9.0 mph SW14.5 kmh SW 17.0 mph27.4 kmh 29.63 in1003.4 mb 0.00 in0.0 mm 0.00 in0.0 mm 0.00 in0.0 mm
08:01 AM 59.5°F15.3°C 56.9°F13.8°C 91% 8.0 mph SW12.9 kmh SW 17.0 mph27.4 kmh 29.63 in1003.4 mb 0.00 in0.0 mm 0.00 in0.0 mm 0.00 in0.0 mm
08:00 AM 59.5°F15.3°C 56.9°F13.8°C 91% 8.0 mph SW12.9 kmh SW 17.0 mph27.4 kmh 29.63 in1003.4 mb 0.00 in0.0 mm 0.00 in0.0 mm 0.00 in0.0 mm
07:59 AM 59.5°F15.3°C 57.2°F14.0°C 92% 8.0 mph SW12.9 kmh SW 17.0 mph27.4 kmh 29.63 in1003.4 mb 0.00 in0.0 mm 0.00 in0.0 mm 0.00 in0.0 mm
07:58 AM 59.5°F15.3°C 56.9°F13.8°C 91% 8.0 mph SW12.9 kmh SW 17.0 mph27.4 kmh 29.63 in1003.4 mb 0.00 in0.0 mm 0.00 in0.0 mm 0.00 in0.0 mm
07:57 AM 59.5°F15.3°C 56.9°F13.8°C 91% 8.0 mph SW12.9 kmh SW 17.0 mph27.4 kmh 29.63 in1003.4 mb 0.00 in0.0 mm 0.00 in0.0 mm 0.00 in0.0 mm
07:56 AM 59.5°F15.3°C 56.9°F13.8°C 91% 8.0 mph SW12.9 kmh SW 16.0 mph25.7 kmh 29.63 in1003.4 mb 0.00 in0.0 mm 0.00 in0.0 mm 0.00 in0.0 mm
07:55 AM 59.5°F15.3°C 56.9°F13.8°C 91% 8.0 mph SW12.9 kmh SW 14.0 mph22.5 kmh 29.63 in1003.4 mb 0.00 in0.0 mm 0.00 in0.0 mm 0.00 in0.0 mm
07:54 AM 59.5°F15.3°C 57.2°F14.0°C 92% 8.0 mph SW12.9 kmh SW 14.0 mph22.5 kmh 29.63 in1003.4 mb 0.00 in0.0 mm 0.00 in0.0 mm 0.00 in0.0 mm
07:53 AM 59.5°F15.3°C 57.2°F14.0°C 92% 8.0 mph SW12.9 kmh SW 14.0 mph22.5 kmh 29.63 in1003.4 mb 0.00 in0.0 mm 0.00 in0.0 mm 0.00 in0.0 mm
07:52 AM 59.5°F15.3°C 57.2°F14.0°C 92% 8.0 mph SW12.9 kmh SW 14.0 mph22.5 kmh 29.63 in1003.4 mb 0.00 in0.0 mm 0.00 in0.0 mm 0.00 in0.0 mm
07:51 AM 59.5°F15.3°C 57.2°F14.0°C 92% 8.0 mph SW12.9 kmh SW 14.0 mph22.5 kmh 29.63 in1003.4 mb 0.00 in0.0 mm 0.00 in0.0 mm 0.00 in0.0 mm
07:50 AM 59.5°F15.3°C 57.2°F14.0°C 92% 8.0 mph SW12.9 kmh SW 14.0 mph22.5 kmh 29.63 in1003.4 mb 0.00 in0.0 mm 0.00 in0.0 mm 0.00 in0.0 mm
07:49 AM 59.5°F15.3°C 57.2°F14.0°C 92% 8.0 mph SW12.9 kmh SW 14.0 mph22.5 kmh 29.63 in1003.4 mb 0.00 in0.0 mm 0.00 in0.0 mm 0.00 in0.0 mm
07:48 AM 59.5°F15.3°C 57.2°F14.0°C 92% 8.0 mph SW12.9 kmh SW 14.0 mph22.5 kmh 29.63 in1003.4 mb 0.00 in0.0 mm 0.00 in0.0 mm 0.00 in0.0 mm
07:47 AM 59.5°F15.3°C 57.2°F14.0°C 92% 8.0 mph SW12.9 kmh SW 14.0 mph22.5 kmh 29.63 in1003.4 mb 0.00 in0.0 mm 0.00 in0.0 mm 0.00 in0.0 mm
07:46 AM 59.4°F15.2°C 56.7°F13.7°C 91% 8.0 mph SW12.9 kmh SW 14.0 mph22.5 kmh 29.63 in1003.4 mb 0.00 in0.0 mm 0.00 in0.0 mm 0.00 in0.0 mm
07:45 AM 59.5°F15.3°C 56.9°F13.8°C 91% 8.0 mph SW12.9 kmh SW 14.0 mph22.5 kmh 29.63 in1003.4 mb 0.00 in0.0 mm 0.00 in0.0 mm 0.00 in0.0 mm
07:44 AM 59.5°F15.3°C 57.2°F14.0°C 92% 8.0 mph SW12.9 kmh SW 14.0 mph22.5 kmh 29.63 in1003.4 mb 0.00 in0.0 mm 0.00 in0.0 mm 0.00 in0.0 mm
07:43 AM 59.4°F15.2°C 56.7°F13.7°C 91% 8.0 mph SW12.9 kmh SW 14.0 mph22.5 kmh 29.63 in1003.4 mb 0.00 in0.0 mm 0.00 in0.0 mm 0.00 in0.0 mm
07:42 AM 59.4°F15.2°C 56.7°F13.7°C 91% 7.0 mph SW11.3 kmh SW 14.0 mph22.5 kmh 29.63 in1003.4 mb 0.00 in0.0 mm 0.00 in0.0 mm 0.00 in0.0 mm
07:41 AM 59.4°F15.2°C 56.7°F13.7°C 91% 7.0 mph SW11.3 kmh SW 14.0 mph22.5 kmh 29.63 in1003.4 mb 0.00 in0.0 mm 0.00 in0.0 mm 0.00 in0.0 mm
07:40 AM 59.4°F15.2°C 56.7°F13.7°C 91% 7.0 mph SW11.3 kmh SW 14.0 mph22.5 kmh 29.63 in1003.4 mb 0.00 in0.0 mm 0.00 in0.0 mm 0.00 in0.0 mm
07:39 AM 59.4°F15.2°C 56.7°F13.7°C 91% 7.0 mph SSW11.3 kmh SSW 14.0 mph22.5 kmh 29.64 in1003.7 mb 0.00 in0.0 mm 0.00 in0.0 mm 0.00 in0.0 mm
07:38 AM 59.4°F15.2°C 56.7°F13.7°C 91% 7.0 mph SSW11.3 kmh SSW 14.0 mph22.5 kmh 29.64 in1003.7 mb 0.00 in0.0 mm 0.00 in0.0 mm 0.00 in0.0 mm
07:37 AM 59.4°F15.2°C 56.7°F13.7°C 91% 7.0 mph SSW11.3 kmh SSW 14.0 mph22.5 kmh 29.64 in1003.7 mb 0.00 in0.0 mm 0.00 in0.0 mm 0.00 in0.0 mm
07:36 AM 59.4°F15.2°C 56.7°F13.7°C 91% 8.0 mph SSW12.9 kmh SSW 14.0 mph22.5 kmh 29.64 in1003.7 mb 0.00 in0.0 mm 0.00 in0.0 mm 0.00 in0.0 mm
07:35 AM 59.4°F15.2°C 56.7°F13.7°C 91% 8.0 mph SSW12.9 kmh SSW 14.0 mph22.5 kmh 29.64 in1003.7 mb 0.00 in0.0 mm 0.00 in0.0 mm 0.00 in0.0 mm
07:34 AM 59.4°F15.2°C 56.7°F13.7°C 91% 8.0 mph SSW12.9 kmh SSW 14.0 mph22.5 kmh 29.64 in1003.7 mb 0.00 in0.0 mm 0.00 in0.0 mm 0.00 in0.0 mm
07:33 AM 59.4°F15.2°C 56.7°F13.7°C 91% 8.0 mph SSW12.9 kmh SSW 13.0 mph20.9 kmh 29.64 in1003.7 mb 0.00 in0.0 mm 0.00 in0.0 mm 0.00 in0.0 mm
07:32 AM 59.4°F15.2°C 56.7°F13.7°C 91% 8.0 mph SSW12.9 kmh SSW 12.0 mph19.3 kmh 29.64 in1003.7 mb 0.00 in0.0 mm 0.00 in0.0 mm 0.00 in0.0 mm
07:31 AM 59.4°F15.2°C 56.7°F13.7°C 91% 8.0 mph SSW12.9 kmh SSW 12.0 mph19.3 kmh 29.64 in1003.7 mb 0.00 in0.0 mm 0.00 in0.0 mm 0.00 in0.0 mm
07:30 AM 59.4°F15.2°C 56.7°F13.7°C 91% 8.0 mph SSW12.9 kmh SSW 15.0 mph24.1 kmh 29.64 in1003.7 mb 0.00 in0.0 mm 0.00 in0.0 mm 0.00 in0.0 mm
07:29 AM 59.4°F15.2°C 56.7°F13.7°C 91% 8.0 mph SSW12.9 kmh SSW 17.0 mph27.4 kmh 29.64 in1003.7 mb 0.00 in0.0 mm 0.00 in0.0 mm 0.00 in0.0 mm
07:28 AM 59.4°F15.2°C 56.7°F13.7°C 91% 8.0 mph SSW12.9 kmh SSW 17.0 mph27.4 kmh 29.64 in1003.7 mb 0.00 in0.0 mm 0.00 in0.0 mm 0.00 in0.0 mm
07:27 AM 59.4°F15.2°C 56.7°F13.7°C 91% 7.0 mph SSW11.3 kmh SSW 17.0 mph27.4 kmh 29.64 in1003.7 mb 0.00 in0.0 mm 0.00 in0.0 mm 0.00 in0.0 mm
07:26 AM 59.4°F15.2°C 56.7°F13.7°C 91% 7.0 mph SSW11.3 kmh SSW 17.0 mph27.4 kmh 29.64 in1003.7 mb 0.00 in0.0 mm 0.00 in0.0 mm 0.00 in0.0 mm
07:25 AM 59.4°F15.2°C 56.7°F13.7°C 91% 7.0 mph SSW11.3 kmh SSW 17.0 mph27.4 kmh 29.64 in1003.7 mb 0.00 in0.0 mm 0.00 in0.0 mm 0.00 in0.0 mm
07:24 AM 59.4°F15.2°C 56.7°F13.7°C 91% 7.0 mph SSW11.3 kmh SSW 17.0 mph27.4 kmh 29.64 in1003.7 mb 0.00 in0.0 mm 0.00 in0.0 mm 0.00 in0.0 mm
07:23 AM 59.4°F15.2°C 56.7°F13.7°C 91% 7.0 mph SSW11.3 kmh SSW 17.0 mph27.4 kmh 29.64 in1003.7 mb 0.00 in0.0 mm 0.00 in0.0 mm 0.00 in0.0 mm
07:22 AM 59.4°F15.2°C 56.7°F13.7°C 91% 7.0 mph SSW11.3 kmh SSW 17.0 mph27.4 kmh 29.64 in1003.7 mb 0.00 in0.0 mm 0.00 in0.0 mm 0.00 in0.0 mm
07:21 AM 59.4°F15.2°C 56.7°F13.7°C 91% 7.0 mph SSW11.3 kmh SSW 17.0 mph27.4 kmh 29.64 in1003.7 mb 0.00 in0.0 mm 0.00 in0.0 mm 0.00 in0.0 mm
07:20 AM 59.4°F15.2°C 56.7°F13.7°C 91% 7.0 mph SSW11.3 kmh SSW 17.0 mph27.4 kmh 29.64 in1003.7 mb 0.00 in0.0 mm 0.00 in0.0 mm 0.00 in0.0 mm
07:19 AM 59.4°F15.2°C 56.7°F13.7°C 91% 7.0 mph SSW11.3 kmh SSW 17.0 mph27.4 kmh 29.64 in1003.7 mb 0.00 in0.0 mm 0.00 in0.0 mm 0.00 in0.0 mm
07:18 AM 59.4°F15.2°C 56.7°F13.7°C 91% 7.0 mph SSW11.3 kmh SSW 17.0 mph27.4 kmh 29.64 in1003.7 mb 0.00 in0.0 mm 0.00 in0.0 mm 0.00 in0.0 mm
07:17 AM 59.4°F15.2°C 56.7°F13.7°C 91% 7.0 mph SSW11.3 kmh SSW 17.0 mph27.4 kmh 29.64 in1003.7 mb 0.00 in0.0 mm 0.00 in0.0 mm 0.00 in0.0 mm
07:16 AM 59.4°F15.2°C 56.7°F13.7°C 91% 7.0 mph SSW11.3 kmh SSW 12.0 mph19.3 kmh 29.64 in1003.7 mb 0.00 in0.0 mm 0.00 in0.0 mm 0.00 in0.0 mm
07:15 AM 59.4°F15.2°C 56.7°F13.7°C 91% 7.0 mph SSW11.3 kmh SSW 12.0 mph19.3 kmh 29.64 in1003.7 mb 0.00 in0.0 mm 0.00 in0.0 mm 0.00 in0.0 mm
07:14 AM 59.4°F15.2°C 56.7°F13.7°C 91% 7.0 mph SSW11.3 kmh SSW 12.0 mph19.3 kmh 29.64 in1003.7 mb 0.00 in0.0 mm 0.00 in0.0 mm 0.00 in0.0 mm
07:13 AM 59.4°F15.2°C 56.7°F13.7°C 91% 7.0 mph SSW11.3 kmh SSW 12.0 mph19.3 kmh 29.63 in1003.4 mb 0.00 in0.0 mm 0.00 in0.0 mm 0.00 in0.0 mm
07:12 AM 59.4°F15.2°C 56.7°F13.7°C 91% 7.0 mph SSW11.3 kmh SSW 12.0 mph19.3 kmh 29.63 in1003.4 mb 0.00 in0.0 mm 0.00 in0.0 mm 0.00 in0.0 mm
07:11 AM 59.4°F15.2°C 56.7°F13.7°C 91% 7.0 mph SSW11.3 kmh SSW 12.0 mph19.3 kmh 29.63 in1003.4 mb 0.00 in0.0 mm 0.00 in0.0 mm 0.00 in0.0 mm
07:10 AM 59.4°F15.2°C 56.7°F13.7°C 91% 6.0 mph SSW9.7 kmh SSW 12.0 mph19.3 kmh 29.63 in1003.4 mb 0.00 in0.0 mm 0.00 in0.0 mm 0.00 in0.0 mm
07:09 AM 59.4°F15.2°C 56.7°F13.7°C 91% 6.0 mph SSW9.7 kmh SSW 12.0 mph19.3 kmh 29.63 in1003.4 mb 0.00 in0.0 mm 0.00 in0.0 mm 0.00 in0.0 mm
07:08 AM 59.4°F15.2°C 56.7°F13.7°C 91% 6.0 mph SSW9.7 kmh SSW 12.0 mph19.3 kmh 29.63 in1003.4 mb 0.00 in0.0 mm 0.00 in0.0 mm 0.00 in0.0 mm
07:07 AM 59.4°F15.2°C 56.7°F13.7°C 91% 6.0 mph SSW9.7 kmh SSW 12.0 mph19.3 kmh 29.63 in1003.4 mb 0.00 in0.0 mm 0.00 in0.0 mm 0.00 in0.0 mm
07:06 AM 59.4°F15.2°C 56.7°F13.7°C 91% 6.0 mph SSW9.7 kmh SSW 12.0 mph19.3 kmh 29.63 in1003.4 mb 0.00 in0.0 mm 0.00 in0.0 mm 0.00 in0.0 mm
07:05 AM 59.4°F15.2°C 56.7°F13.7°C 91% 6.0 mph S9.7 kmh S 11.0 mph17.7 kmh 29.63 in1003.4 mb 0.00 in0.0 mm 0.00 in0.0 mm 0.00 in0.0 mm
07:04 AM 59.4°F15.2°C 56.7°F13.7°C 91% 7.0 mph S11.3 kmh S 11.0 mph17.7 kmh 29.63 in1003.4 mb 0.00 in0.0 mm 0.00 in0.0 mm 0.00 in0.0 mm
07:03 AM 59.4°F15.2°C 56.7°F13.7°C 91% 7.0 mph S11.3 kmh S 12.0 mph19.3 kmh 29.63 in1003.4 mb 0.00 in0.0 mm 0.00 in0.0 mm 0.00 in0.0 mm
07:02 AM 59.4°F15.2°C 56.7°F13.7°C 91% 7.0 mph S11.3 kmh S 13.0 mph20.9 kmh 29.63 in1003.4 mb 0.00 in0.0 mm 0.00 in0.0 mm 0.00 in0.0 mm
07:01 AM 59.4°F15.2°C 56.7°F13.7°C 91% 6.0 mph S9.7 kmh S 13.0 mph20.9 kmh 29.63 in1003.4 mb 0.00 in0.0 mm 0.00 in0.0 mm 0.00 in0.0 mm
07:00 AM 59.4°F15.2°C 56.7°F13.7°C 91% 6.0 mph S9.7 kmh S 13.0 mph20.9 kmh 29.63 in1003.4 mb 0.00 in0.0 mm 0.00 in0.0 mm 0.00 in0.0 mm
06:59 AM 59.4°F15.2°C 56.7°F13.7°C 91% 6.0 mph S9.7 kmh S 13.0 mph20.9 kmh 29.63 in1003.4 mb 0.00 in0.0 mm 0.00 in0.0 mm 0.00 in0.0 mm
06:58 AM 59.4°F15.2°C 56.7°F13.7°C 91% 6.0 mph S9.7 kmh S 13.0 mph20.9 kmh 29.63 in1003.4 mb 0.00 in0.0 mm 0.00 in0.0 mm 0.00 in0.0 mm
06:57 AM 59.4°F15.2°C 56.7°F13.7°C 91% 6.0 mph S9.7 kmh S 13.0 mph20.9 kmh 29.63 in1003.4 mb 0.00 in0.0 mm 0.00 in0.0 mm 0.00 in0.0 mm
06:56 AM 59.4°F15.2°C 56.7°F13.7°C 91% 6.0 mph S9.7 kmh S 13.0 mph20.9 kmh 29.63 in1003.4 mb 0.00 in0.0 mm 0.00 in0.0 mm 0.00 in0.0 mm
06:55 AM 59.4°F15.2°C 56.7°F13.7°C 91% 6.0 mph S9.7 kmh S 13.0 mph20.9 kmh 29.63 in1003.4 mb 0.00 in0.0 mm 0.00 in0.0 mm 0.00 in0.0 mm
06:54 AM 59.4°F15.2°C 56.7°F13.7°C 91% 6.0 mph S9.7 kmh S 13.0 mph20.9 kmh 29.62 in1003.0 mb 0.00 in0.0 mm 0.00 in0.0 mm 0.00 in0.0 mm
06:53 AM 59.4°F15.2°C 56.7°F13.7°C 91% 6.0 mph S9.7 kmh S 13.0 mph20.9 kmh 29.62 in1003.0 mb 0.00 in0.0 mm 0.00 in0.0 mm 0.00 in0.0 mm
06:52 AM 59.4°F15.2°C 56.7°F13.7°C 91% 6.0 mph S9.7 kmh S 13.0 mph20.9 kmh 29.62 in1003.0 mb 0.00 in0.0 mm 0.00 in0.0 mm 0.00 in0.0 mm
06:51 AM 59.4°F15.2°C 56.7°F13.7°C 91% 6.0 mph S9.7 kmh S 13.0 mph20.9 kmh 29.62 in1003.0 mb 0.00 in0.0 mm 0.00 in0.0 mm 0.00 in0.0 mm
06:50 AM 59.4°F15.2°C 56.7°F13.7°C 91% 6.0 mph S9.7 kmh S 13.0 mph20.9 kmh 29.62 in1003.0 mb 0.00 in0.0 mm 0.00 in0.0 mm 0.00 in0.0 mm
06:49 AM 59.4°F15.2°C 56.7°F13.7°C 91% 6.0 mph S9.7 kmh S 12.0 mph19.3 kmh 29.62 in1003.0 mb 0.00 in0.0 mm 0.00 in0.0 mm 0.00 in0.0 mm
06:48 AM 59.4°F15.2°C 56.7°F13.7°C 91% 6.0 mph S9.7 kmh S 12.0 mph19.3 kmh 29.62 in1003.0 mb 0.00 in0.0 mm 0.00 in0.0 mm 0.00 in0.0 mm
06:47 AM 59.4°F15.2°C 56.7°F13.7°C 91% 6.0 mph S9.7 kmh S 11.0 mph17.7 kmh 29.62 in1003.0 mb 0.00 in0.0 mm 0.00 in0.0 mm 0.00 in0.0 mm
06:46 AM 59.4°F15.2°C 56.7°F13.7°C 91% 6.0 mph S9.7 kmh S 11.0 mph17.7 kmh 29.62 in1003.0 mb 0.00 in0.0 mm 0.00 in0.0 mm 0.00 in0.0 mm
06:45 AM 59.4°F15.2°C 56.7°F13.7°C 91% 6.0 mph S9.7 kmh S 11.0 mph17.7 kmh 29.62 in1003.0 mb 0.00 in0.0 mm 0.00 in0.0 mm 0.00 in0.0 mm
06:44 AM 59.4°F15.2°C 56.7°F13.7°C 91% 6.0 mph S9.7 kmh S 13.0 mph20.9 kmh 29.62 in1003.0 mb 0.00 in0.0 mm 0.00 in0.0 mm 0.00 in0.0 mm
06:43 AM 59.4°F15.2°C 56.7°F13.7°C 91% 6.0 mph S9.7 kmh S 13.0 mph20.9 kmh 29.62 in1003.0 mb 0.00 in0.0 mm 0.00 in0.0 mm 0.00 in0.0 mm
06:42 AM 59.4°F15.2°C 56.7°F13.7°C 91% 6.0 mph S9.7 kmh S 13.0 mph20.9 kmh 29.62 in1003.0 mb 0.00 in0.0 mm 0.00 in0.0 mm 0.00 in0.0 mm
06:41 AM 59.4°F15.2°C 56.7°F13.7°C 91% 6.0 mph S9.7 kmh S 13.0 mph20.9 kmh 29.62 in1003.0 mb 0.00 in0.0 mm 0.00 in0.0 mm 0.00 in0.0 mm
06:40 AM 59.4°F15.2°C 56.7°F13.7°C 91% 6.0 mph S9.7 kmh S 13.0 mph20.9 kmh 29.62 in1003.0 mb 0.00 in0.0 mm 0.00 in0.0 mm 0.00 in0.0 mm
06:39 AM 59.4°F15.2°C 56.7°F13.7°C 91% 6.0 mph S9.7 kmh S 13.0 mph20.9 kmh 29.62 in1003.0 mb 0.00 in0.0 mm 0.00 in0.0 mm 0.00 in0.0 mm
06:38 AM 59.4°F15.2°C 56.7°F13.7°C 91% 6.0 mph S9.7 kmh S 13.0 mph20.9 kmh 29.62 in1003.0 mb 0.00 in0.0 mm 0.00 in0.0 mm 0.00 in0.0 mm
06:37 AM 59.4°F15.2°C 56.7°F13.7°C 91% 6.0 mph S9.7 kmh S 13.0 mph20.9 kmh 29.62 in1003.0 mb 0.00 in0.0 mm 0.00 in0.0 mm 0.00 in0.0 mm
06:36 AM 59.4°F15.2°C 56.7°F13.7°C 91% 6.0 mph S9.7 kmh S 13.0 mph20.9 kmh 29.62 in1003.0 mb 0.00 in0.0 mm 0.00 in0.0 mm 0.00 in0.0 mm
06:35 AM 59.4°F15.2°C 56.7°F13.7°C 91% 6.0 mph S9.7 kmh S 13.0 mph20.9 kmh 29.62 in1003.0 mb 0.00 in0.0 mm 0.00 in0.0 mm 0.00 in0.0 mm
06:34 AM 59.4°F15.2°C 56.7°F13.7°C 91% 6.0 mph S9.7 kmh S 10.0 mph16.1 kmh 29.62 in1003.0 mb 0.00 in0.0 mm 0.00 in0.0 mm 0.00 in0.0 mm
06:33 AM 59.5°F15.3°C 56.9°F13.8°C 91% 6.0 mph S9.7 kmh S 10.0 mph16.1 kmh 29.62 in1003.0 mb 0.00 in0.0 mm 0.00 in0.0 mm 0.00 in0.0 mm
06:32 AM 59.5°F15.3°C 56.9°F13.8°C 91% 6.0 mph S9.7 kmh S 10.0 mph16.1 kmh 29.62 in1003.0 mb 0.00 in0.0 mm 0.00 in0.0 mm 0.00 in0.0 mm
06:31 AM 59.5°F15.3°C 56.9°F13.8°C 91% 6.0 mph S9.7 kmh S 10.0 mph16.1 kmh 29.62 in1003.0 mb 0.00 in0.0 mm 0.00 in0.0 mm 0.00 in0.0 mm
06:30 AM 59.5°F15.3°C 56.9°F13.8°C 91% 6.0 mph S9.7 kmh S 12.0 mph19.3 kmh 29.62 in1003.0 mb 0.00 in0.0 mm 0.00 in0.0 mm 0.00 in0.0 mm
06:29 AM 59.5°F15.3°C 56.9°F13.8°C 91% 6.0 mph S9.7 kmh S 12.0 mph19.3 kmh 29.62 in1003.0 mb 0.00 in0.0 mm 0.00 in0.0 mm 0.00 in0.0 mm
06:28 AM 59.5°F15.3°C 56.9°F13.8°C 91% 6.0 mph S9.7 kmh S 12.0 mph19.3 kmh 29.62 in1003.0 mb 0.00 in0.0 mm 0.00 in0.0 mm 0.00 in0.0 mm
06:27 AM 59.5°F15.3°C 56.9°F13.8°C 91% 6.0 mph S9.7 kmh S 12.0 mph19.3 kmh 29.61 in1002.7 mb 0.00 in0.0 mm 0.00 in0.0 mm 0.00 in0.0 mm
06:26 AM 59.5°F15.3°C 56.9°F13.8°C 91% 6.0 mph S9.7 kmh S 12.0 mph19.3 kmh 29.61 in1002.7 mb 0.00 in0.0 mm 0.00 in0.0 mm 0.00 in0.0 mm
06:25 AM 59.5°F15.3°C 56.9°F13.8°C 91% 6.0 mph S9.7 kmh S 12.0 mph19.3 kmh 29.61 in1002.7 mb 0.00 in0.0 mm 0.00 in0.0 mm 0.00 in0.0 mm
06:24 AM 59.5°F15.3°C 56.9°F13.8°C 91% 6.0 mph S9.7 kmh S 12.0 mph19.3 kmh 29.61 in1002.7 mb 0.00 in0.0 mm 0.00 in0.0 mm 0.00 in0.0 mm
06:23 AM 59.5°F15.3°C 56.9°F13.8°C 91% 6.0 mph S9.7 kmh S 12.0 mph19.3 kmh 29.61 in1002.7 mb 0.00 in0.0 mm 0.00 in0.0 mm 0.00 in0.0 mm
06:22 AM 59.5°F15.3°C 56.9°F13.8°C 91% 6.0 mph SSW9.7 kmh SSW 12.0 mph19.3 kmh 29.62 in1003.0 mb 0.00 in0.0 mm 0.00 in0.0 mm 0.00 in0.0 mm
06:21 AM 59.5°F15.3°C 56.9°F13.8°C 91% 6.0 mph SSW9.7 kmh SSW 12.0 mph19.3 kmh 29.62 in1003.0 mb 0.00 in0.0 mm 0.00 in0.0 mm 0.00 in0.0 mm
06:20 AM 59.5°F15.3°C 56.9°F13.8°C 91% 6.0 mph S9.7 kmh S 12.0 mph19.3 kmh 29.62 in1003.0 mb 0.00 in0.0 mm 0.00 in0.0 mm 0.00 in0.0 mm
06:19 AM 59.5°F15.3°C 56.9°F13.8°C 91% 6.0 mph S9.7 kmh S 12.0 mph19.3 kmh 29.62 in1003.0 mb 0.00 in0.0 mm 0.00 in0.0 mm 0.00 in0.0 mm
06:18 AM 59.5°F15.3°C 56.9°F13.8°C 91% 6.0 mph S9.7 kmh S 12.0 mph19.3 kmh 29.62 in1003.0 mb 0.00 in0.0 mm 0.00 in0.0 mm 0.00 in0.0 mm
06:17 AM 59.5°F15.3°C 56.9°F13.8°C 91% 6.0 mph S9.7 kmh S 12.0 mph19.3 kmh 29.62 in1003.0 mb 0.00 in0.0 mm 0.00 in0.0 mm 0.00 in0.0 mm
06:16 AM 59.5°F15.3°C 56.6°F13.7°C 90% 6.0 mph S9.7 kmh S 12.0 mph19.3 kmh 29.62 in1003.0 mb 0.00 in0.0 mm 0.00 in0.0 mm 0.00 in0.0 mm
06:15 AM 59.5°F15.3°C 56.6°F13.7°C 90% 6.0 mph S9.7 kmh S 12.0 mph19.3 kmh 29.62 in1003.0 mb 0.00 in0.0 mm 0.00 in0.0 mm 0.00 in0.0 mm
06:14 AM 59.5°F15.3°C 56.6°F13.7°C 90% 6.0 mph S9.7 kmh S 12.0 mph19.3 kmh 29.61 in1002.7 mb 0.00 in0.0 mm 0.00 in0.0 mm 0.00 in0.0 mm
06:13 AM 59.5°F15.3°C 56.6°F13.7°C 90% 6.0 mph S9.7 kmh S 12.0 mph19.3 kmh 29.62 in1003.0 mb 0.00 in0.0 mm 0.00 in0.0 mm 0.00 in0.0 mm
06:12 AM 59.7°F15.4°C 56.8°F13.8°C 90% 6.0 mph S9.7 kmh S 12.0 mph19.3 kmh 29.62 in1003.0 mb 0.00 in0.0 mm 0.00 in0.0 mm 0.00 in0.0 mm
06:11 AM 59.5°F15.3°C 56.9°F13.8°C 91% 6.0 mph S9.7 kmh S 12.0 mph19.3 kmh 29.62 in1003.0 mb 0.00 in0.0 mm 0.00 in0.0 mm 0.00 in0.0 mm
06:10 AM 59.5°F15.3°C 56.6°F13.7°C 90% 6.0 mph S9.7 kmh S 12.0 mph19.3 kmh 29.62 in1003.0 mb 0.00 in0.0 mm 0.00 in0.0 mm 0.00 in0.0 mm
06:09 AM 59.5°F15.3°C 56.6°F13.7°C 90% 6.0 mph S9.7 kmh S 12.0 mph19.3 kmh 29.62 in1003.0 mb 0.00 in0.0 mm 0.00 in0.0 mm 0.00 in0.0 mm
06:08 AM 59.5°F15.3°C 56.6°F13.7°C 90% 6.0 mph S9.7 kmh S 11.0 mph17.7 kmh 29.62 in1003.0 mb 0.00 in0.0 mm 0.00 in0.0 mm 0.00 in0.0 mm
06:07 AM 59.5°F15.3°C 56.6°F13.7°C 90% 6.0 mph S9.7 kmh S 12.0 mph19.3 kmh 29.62 in1003.0 mb 0.00 in0.0 mm 0.00 in0.0 mm 0.00 in0.0 mm
06:06 AM 59.5°F15.3°C 56.6°F13.7°C 90% 6.0 mph S9.7 kmh S 12.0 mph19.3 kmh 29.62 in1003.0 mb 0.00 in0.0 mm 0.00 in0.0 mm 0.00 in0.0 mm
06:05 AM 59.5°F15.3°C 56.6°F13.7°C 90% 6.0 mph S9.7 kmh S 12.0 mph19.3 kmh 29.62 in1003.0 mb 0.00 in0.0 mm 0.00 in0.0 mm 0.00 in0.0 mm
06:04 AM 59.5°F15.3°C 56.6°F13.7°C 90% 6.0 mph SSW9.7 kmh SSW 12.0 mph19.3 kmh 29.62 in1003.0 mb 0.00 in0.0 mm 0.00 in0.0 mm 0.00 in0.0 mm
06:03 AM 59.5°F15.3°C 56.6°F13.7°C 90% 6.0 mph SSW9.7 kmh SSW 12.0 mph19.3 kmh 29.62 in1003.0 mb 0.00 in0.0 mm 0.00 in0.0 mm 0.00 in0.0 mm
06:02 AM 59.5°F15.3°C 56.6°F13.7°C 90% 6.0 mph SSW9.7 kmh SSW 12.0 mph19.3 kmh 29.62 in1003.0 mb 0.00 in0.0 mm 0.00 in0.0 mm 0.00 in0.0 mm
06:01 AM 59.5°F15.3°C 56.6°F13.7°C 90% 6.0 mph SSW9.7 kmh SSW 12.0 mph19.3 kmh 29.62 in1003.0 mb 0.00 in0.0 mm 0.00 in0.0 mm 0.00 in0.0 mm
06:00 AM 59.5°F15.3°C 56.6°F13.7°C 90% 6.0 mph SSW9.7 kmh SSW 12.0 mph19.3 kmh 29.62 in1003.0 mb 0.00 in0.0 mm 0.00 in0.0 mm 0.00 in0.0 mm
05:59 AM 59.5°F15.3°C 56.6°F13.7°C 90% 6.0 mph SSW9.7 kmh SSW 12.0 mph19.3 kmh 29.62 in1003.0 mb 0.00 in0.0 mm 0.00 in0.0 mm 0.00 in0.0 mm
05:58 AM 59.5°F15.3°C 56.6°F13.7°C 90% 6.0 mph SSW9.7 kmh SSW 13.0 mph20.9 kmh 29.62 in1003.0 mb 0.00 in0.0 mm 0.00 in0.0 mm 0.00 in0.0 mm
05:57 AM 59.5°F15.3°C 56.6°F13.7°C 90% 6.0 mph SSW9.7 kmh SSW 13.0 mph20.9 kmh 29.62 in1003.0 mb 0.00 in0.0 mm 0.00 in0.0 mm 0.00 in0.0 mm
05:56 AM 59.5°F15.3°C 56.6°F13.7°C 90% 7.0 mph SSW11.3 kmh SSW 13.0 mph20.9 kmh 29.62 in1003.0 mb 0.00 in0.0 mm 0.00 in0.0 mm 0.00 in0.0 mm
05:55 AM 59.5°F15.3°C 56.6°F13.7°C 90% 7.0 mph SSW11.3 kmh SSW 13.0 mph20.9 kmh 29.62 in1003.0 mb 0.00 in0.0 mm 0.00 in0.0 mm 0.00 in0.0 mm
05:54 AM 59.5°F15.3°C 56.6°F13.7°C 90% 7.0 mph SSW11.3 kmh SSW 13.0 mph20.9 kmh 29.62 in1003.0 mb 0.00 in0.0 mm 0.00 in0.0 mm 0.00 in0.0 mm
05:53 AM 59.5°F15.3°C 56.6°F13.7°C 90% 7.0 mph SSW11.3 kmh SSW 13.0 mph20.9 kmh 29.62 in1003.0 mb 0.00 in0.0 mm 0.00 in0.0 mm 0.00 in0.0 mm
05:52 AM 59.5°F15.3°C 56.6°F13.7°C 90% 7.0 mph SSW11.3 kmh SSW 13.0 mph20.9 kmh 29.62 in1003.0 mb 0.00 in0.0 mm 0.00 in0.0 mm 0.00 in0.0 mm
05:51 AM 59.5°F15.3°C 56.6°F13.7°C 90% 7.0 mph SSW11.3 kmh SSW 13.0 mph20.9 kmh 29.62 in1003.0 mb 0.00 in0.0 mm 0.00 in0.0 mm 0.00 in0.0 mm
05:50 AM 59.5°F15.3°C 56.6°F13.7°C 90% 7.0 mph SSW11.3 kmh SSW 14.0 mph22.5 kmh 29.62 in1003.0 mb 0.00 in0.0 mm 0.00 in0.0 mm 0.00 in0.0 mm
05:49 AM 59.5°F15.3°C 56.6°F13.7°C 90% 7.0 mph SSW11.3 kmh SSW 14.0 mph22.5 kmh 29.62 in1003.0 mb 0.00 in0.0 mm 0.00 in0.0 mm 0.00 in0.0 mm
05:48 AM 59.5°F15.3°C 56.6°F13.7°C 90% 7.0 mph SSW11.3 kmh SSW 14.0 mph22.5 kmh 29.62 in1003.0 mb 0.00 in0.0 mm 0.00 in0.0 mm 0.00 in0.0 mm
05:47 AM 59.5°F15.3°C 56.6°F13.7°C 90% 7.0 mph SSW11.3 kmh SSW 14.0 mph22.5 kmh 29.63 in1003.4 mb 0.00 in0.0 mm 0.00 in0.0 mm 0.00 in0.0 mm
05:46 AM 59.5°F15.3°C 56.6°F13.7°C 90% 7.0 mph SSW11.3 kmh SSW 14.0 mph22.5 kmh 29.62 in1003.0 mb 0.00 in0.0 mm 0.00 in0.0 mm 0.00 in0.0 mm
05:45 AM 59.5°F15.3°C 56.6°F13.7°C 90% 7.0 mph SSW11.3 kmh SSW 14.0 mph22.5 kmh 29.62 in1003.0 mb 0.00 in0.0 mm 0.00 in0.0 mm 0.00 in0.0 mm
05:44 AM 59.5°F15.3°C 56.6°F13.7°C 90% 7.0 mph SSW11.3 kmh SSW 14.0 mph22.5 kmh 29.62 in1003.0 mb 0.00 in0.0 mm 0.00 in0.0 mm 0.00 in0.0 mm
05:43 AM 59.5°F15.3°C 56.6°F13.7°C 90% 7.0 mph SSW11.3 kmh SSW 14.0 mph22.5 kmh 29.62 in1003.0 mb 0.00 in0.0 mm 0.00 in0.0 mm 0.00 in0.0 mm
05:42 AM 59.5°F15.3°C 56.6°F13.7°C 90% 7.0 mph SSW11.3 kmh SSW 14.0 mph22.5 kmh 29.62 in1003.0 mb 0.00 in0.0 mm 0.00 in0.0 mm 0.00 in0.0 mm
05:41 AM 59.5°F15.3°C 56.6°F13.7°C 90% 7.0 mph SSW11.3 kmh SSW 14.0 mph22.5 kmh 29.62 in1003.0 mb 0.00 in0.0 mm 0.00 in0.0 mm 0.00 in0.0 mm
05:40 AM 59.5°F15.3°C 56.6°F13.7°C 90% 7.0 mph SSW11.3 kmh SSW 14.0 mph22.5 kmh 29.62 in1003.0 mb 0.00 in0.0 mm 0.00 in0.0 mm 0.00 in0.0 mm
05:39 AM 59.5°F15.3°C 56.6°F13.7°C 90% 7.0 mph SSW11.3 kmh SSW 14.0 mph22.5 kmh 29.63 in1003.4 mb 0.00 in0.0 mm 0.00 in0.0 mm 0.00 in0.0 mm
05:38 AM 59.5°F15.3°C 56.6°F13.7°C 90% 7.0 mph S11.3 kmh S 15.0 mph24.1 kmh 29.63 in1003.4 mb 0.00 in0.0 mm 0.00 in0.0 mm 0.00 in0.0 mm
05:37 AM 59.5°F15.3°C 56.6°F13.7°C 90% 7.0 mph S11.3 kmh S 15.0 mph24.1 kmh 29.63 in1003.4 mb 0.00 in0.0 mm 0.00 in0.0 mm 0.00 in0.0 mm
05:36 AM 59.5°F15.3°C 56.6°F13.7°C 90% 7.0 mph S11.3 kmh S 15.0 mph24.1 kmh 29.63 in1003.4 mb 0.00 in0.0 mm 0.00 in0.0 mm 0.00 in0.0 mm
05:35 AM 59.5°F15.3°C 56.6°F13.7°C 90% 7.0 mph S11.3 kmh S 15.0 mph24.1 kmh 29.63 in1003.4 mb 0.00 in0.0 mm 0.00 in0.0 mm 0.00 in0.0 mm
05:34 AM 59.5°F15.3°C 56.6°F13.7°C 90% 7.0 mph S11.3 kmh S 15.0 mph24.1 kmh 29.63 in1003.4 mb 0.00 in0.0 mm 0.00 in0.0 mm 0.00 in0.0 mm
05:33 AM 59.5°F15.3°C 56.6°F13.7°C 90% 7.0 mph S11.3 kmh S 15.0 mph24.1 kmh 29.63 in1003.4 mb 0.00 in0.0 mm 0.00 in0.0 mm 0.00 in0.0 mm
05:32 AM 59.5°F15.3°C 56.6°F13.7°C 90% 7.0 mph S11.3 kmh S 15.0 mph24.1 kmh 29.63 in1003.4 mb 0.00 in0.0 mm 0.00 in0.0 mm 0.00 in0.0 mm
05:31 AM 59.5°F15.3°C 56.6°F13.7°C 90% 7.0 mph S11.3 kmh S 15.0 mph24.1 kmh 29.63 in1003.4 mb 0.00 in0.0 mm 0.00 in0.0 mm 0.00 in0.0 mm
05:30 AM 59.5°F15.3°C 56.6°F13.7°C 90% 7.0 mph S11.3 kmh S 15.0 mph24.1 kmh 29.63 in1003.4 mb 0.00 in0.0 mm 0.00 in0.0 mm 0.00 in0.0 mm
05:29 AM 59.5°F15.3°C 56.6°F13.7°C 90% 7.0 mph S11.3 kmh S 15.0 mph24.1 kmh 29.63 in1003.4 mb 0.00 in0.0 mm 0.00 in0.0 mm 0.00 in0.0 mm
05:28 AM 59.5°F15.3°C 56.6°F13.7°C 90% 7.0 mph S11.3 kmh S 13.0 mph20.9 kmh 29.63 in1003.4 mb 0.00 in0.0 mm 0.00 in0.0 mm 0.00 in0.0 mm
05:27 AM 59.5°F15.3°C 56.6°F13.7°C 90% 7.0 mph S11.3 kmh S 13.0 mph20.9 kmh 29.63 in1003.4 mb 0.00 in0.0 mm 0.00 in0.0 mm 0.00 in0.0 mm
05:26 AM 59.5°F15.3°C 56.6°F13.7°C 90% 7.0 mph S11.3 kmh S 12.0 mph19.3 kmh 29.63 in1003.4 mb 0.00 in0.0 mm 0.00 in0.0 mm 0.00 in0.0 mm
05:25 AM 59.5°F15.3°C 56.6°F13.7°C 90% 7.0 mph S11.3 kmh S 14.0 mph22.5 kmh 29.63 in1003.4 mb 0.00 in0.0 mm 0.00 in0.0 mm 0.00 in0.0 mm
05:24 AM 59.5°F15.3°C 56.6°F13.7°C 90% 7.0 mph S11.3 kmh S 15.0 mph24.1 kmh 29.63 in1003.4 mb 0.00 in0.0 mm 0.00 in0.0 mm 0.00 in0.0 mm
05:23 AM 59.5°F15.3°C 56.6°F13.7°C 90% 7.0 mph S11.3 kmh S 15.0 mph24.1 kmh 29.63 in1003.4 mb 0.00 in0.0 mm 0.00 in0.0 mm 0.00 in0.0 mm
05:22 AM 59.5°F15.3°C 56.6°F13.7°C 90% 7.0 mph S11.3 kmh S 15.0 mph24.1 kmh 29.63 in1003.4 mb 0.00 in0.0 mm 0.00 in0.0 mm 0.00 in0.0 mm
05:21 AM 59.5°F15.3°C 56.6°F13.7°C 90% 7.0 mph S11.3 kmh S 15.0 mph24.1 kmh 29.63 in1003.4 mb 0.00 in0.0 mm 0.00 in0.0 mm 0.00 in0.0 mm
05:20 AM 59.7°F15.4°C 56.8°F13.8°C 90% 7.0 mph S11.3 kmh S 15.0 mph24.1 kmh 29.63 in1003.4 mb 0.00 in0.0 mm 0.00 in0.0 mm 0.00 in0.0 mm
05:19 AM 59.7°F15.4°C 56.8°F13.8°C 90% 7.0 mph S11.3 kmh S 15.0 mph24.1 kmh 29.63 in1003.4 mb 0.00 in0.0 mm 0.00 in0.0 mm 0.00 in0.0 mm
05:18 AM 59.7°F15.4°C 56.8°F13.8°C 90% 7.0 mph S11.3 kmh S 15.0 mph24.1 kmh 29.63 in1003.4 mb 0.00 in0.0 mm 0.00 in0.0 mm 0.00 in0.0 mm
05:17 AM 59.7°F15.4°C 56.8°F13.8°C 90% 7.0 mph S11.3 kmh S 15.0 mph24.1 kmh 29.63 in1003.4 mb 0.00 in0.0 mm 0.00 in0.0 mm 0.00 in0.0 mm
05:16 AM 59.7°F15.4°C 56.8°F13.8°C 90% 7.0 mph SSW11.3 kmh SSW 15.0 mph24.1 kmh 29.63 in1003.4 mb 0.00 in0.0 mm 0.00 in0.0 mm 0.00 in0.0 mm
05:15 AM 59.7°F15.4°C 56.8°F13.8°C 90% 7.0 mph SSW11.3 kmh SSW 15.0 mph24.1 kmh 29.63 in1003.4 mb 0.00 in0.0 mm 0.00 in0.0 mm 0.00 in0.0 mm
05:14 AM 59.7°F15.4°C 56.8°F13.8°C 90% 7.0 mph SSW11.3 kmh SSW 16.0 mph25.7 kmh 29.63 in1003.4 mb 0.00 in0.0 mm 0.00 in0.0 mm 0.00 in0.0 mm
05:13 AM 59.7°F15.4°C 56.8°F13.8°C 90% 7.0 mph SSW11.3 kmh SSW 16.0 mph25.7 kmh 29.63 in1003.4 mb 0.00 in0.0 mm 0.00 in0.0 mm 0.00 in0.0 mm
05:12 AM 59.7°F15.4°C 56.8°F13.8°C 90% 7.0 mph SSW11.3 kmh SSW 16.0 mph25.7 kmh 29.63 in1003.4 mb 0.00 in0.0 mm 0.00 in0.0 mm 0.00 in0.0 mm
05:11 AM 59.7°F15.4°C 56.8°F13.8°C 90% 7.0 mph SSW11.3 kmh SSW 16.0 mph25.7 kmh 29.63 in1003.4 mb 0.00 in0.0 mm 0.00 in0.0 mm 0.00 in0.0 mm
05:10 AM 59.7°F15.4°C 56.8°F13.8°C 90% 7.0 mph SSW11.3 kmh SSW 16.0 mph25.7 kmh 29.63 in1003.4 mb 0.00 in0.0 mm 0.00 in0.0 mm 0.00 in0.0 mm
05:09 AM 59.7°F15.4°C 56.8°F13.8°C 90% 8.0 mph SSW12.9 kmh SSW 16.0 mph25.7 kmh 29.63 in1003.4 mb 0.00 in0.0 mm 0.00 in0.0 mm 0.00 in0.0 mm
05:08 AM 59.7°F15.4°C 56.8°F13.8°C 90% 8.0 mph SSW12.9 kmh SSW 16.0 mph25.7 kmh 29.63 in1003.4 mb 0.00 in0.0 mm 0.00 in0.0 mm 0.00 in0.0 mm
05:07 AM 59.7°F15.4°C 56.8°F13.8°C 90% 8.0 mph SSW12.9 kmh SSW 16.0 mph25.7 kmh 29.63 in1003.4 mb 0.00 in0.0 mm 0.00 in0.0 mm 0.00 in0.0 mm
05:06 AM 59.7°F15.4°C 56.8°F13.8°C 90% 8.0 mph S12.9 kmh S 16.0 mph25.7 kmh 29.63 in1003.4 mb 0.00 in0.0 mm 0.00 in0.0 mm 0.00 in0.0 mm
05:05 AM 59.7°F15.4°C 56.8°F13.8°C 90% 8.0 mph S12.9 kmh S 16.0 mph25.7 kmh 29.63 in1003.4 mb 0.00 in0.0 mm 0.00 in0.0 mm 0.00 in0.0 mm
05:04 AM 59.7°F15.4°C 56.8°F13.8°C 90% 8.0 mph S12.9 kmh S 15.0 mph24.1 kmh 29.63 in1003.4 mb 0.00 in0.0 mm 0.00 in0.0 mm 0.00 in0.0 mm
05:03 AM 59.7°F15.4°C 56.8°F13.8°C 90% 7.0 mph S11.3 kmh S 15.0 mph24.1 kmh 29.63 in1003.4 mb 0.00 in0.0 mm 0.00 in0.0 mm 0.00 in0.0 mm
05:02 AM 59.7°F15.4°C 56.8°F13.8°C 90% 7.0 mph S11.3 kmh S 15.0 mph24.1 kmh 29.63 in1003.4 mb 0.00 in0.0 mm 0.00 in0.0 mm 0.00 in0.0 mm
05:01 AM 59.7°F15.4°C 56.8°F13.8°C 90% 7.0 mph S11.3 kmh S 15.0 mph24.1 kmh 29.63 in1003.4 mb 0.00 in0.0 mm 0.00 in0.0 mm 0.00 in0.0 mm
05:00 AM 59.7°F15.4°C 56.8°F13.8°C 90% 7.0 mph S11.3 kmh S 15.0 mph24.1 kmh 29.63 in1003.4 mb 0.00 in0.0 mm 0.00 in0.0 mm 0.00 in0.0 mm
04:59 AM 59.7°F15.4°C 56.8°F13.8°C 90% 7.0 mph S11.3 kmh S 15.0 mph24.1 kmh 29.63 in1003.4 mb 0.00 in0.0 mm 0.00 in0.0 mm 0.00 in0.0 mm
04:58 AM 59.7°F15.4°C 56.8°F13.8°C 90% 7.0 mph S11.3 kmh S 15.0 mph24.1 kmh 29.63 in1003.4 mb 0.00 in0.0 mm 0.00 in0.0 mm 0.00 in0.0 mm
04:57 AM 59.7°F15.4°C 56.8°F13.8°C 90% 7.0 mph S11.3 kmh S 16.0 mph25.7 kmh 29.63 in1003.4 mb 0.00 in0.0 mm 0.00 in0.0 mm 0.00 in0.0 mm
04:56 AM 59.7°F15.4°C 56.8°F13.8°C 90% 7.0 mph S11.3 kmh S 16.0 mph25.7 kmh 29.63 in1003.4 mb 0.00 in0.0 mm 0.00 in0.0 mm 0.00 in0.0 mm
04:55 AM 59.7°F15.4°C 56.8°F13.8°C 90% 7.0 mph S11.3 kmh S 16.0 mph25.7 kmh 29.63 in1003.4 mb 0.00 in0.0 mm 0.00 in0.0 mm 0.00 in0.0 mm
04:54 AM 59.7°F15.4°C 56.8°F13.8°C 90% 7.0 mph S11.3 kmh S 16.0 mph25.7 kmh 29.63 in1003.4 mb 0.00 in0.0 mm 0.00 in0.0 mm 0.00 in0.0 mm
04:53 AM 59.7°F15.4°C 56.8°F13.8°C 90% 7.0 mph S11.3 kmh S 16.0 mph25.7 kmh 29.63 in1003.4 mb 0.00 in0.0 mm 0.00 in0.0 mm 0.00 in0.0 mm
04:52 AM 59.7°F15.4°C 56.8°F13.8°C 90% 7.0 mph S11.3 kmh S 16.0 mph25.7 kmh 29.63 in1003.4 mb 0.00 in0.0 mm 0.00 in0.0 mm 0.00 in0.0 mm
04:51 AM 59.7°F15.4°C 56.8°F13.8°C 90% 7.0 mph S11.3 kmh S 16.0 mph25.7 kmh 29.63 in1003.4 mb 0.00 in0.0 mm 0.00 in0.0 mm 0.00 in0.0 mm
04:50 AM 59.7°F15.4°C 56.8°F13.8°C 90% 7.0 mph S11.3 kmh S 16.0 mph25.7 kmh 29.63 in1003.4 mb 0.00 in0.0 mm 0.00 in0.0 mm 0.00 in0.0 mm
04:49 AM 59.7°F15.4°C 56.8°F13.8°C 90% 7.0 mph S11.3 kmh S 16.0 mph25.7 kmh 29.63 in1003.4 mb 0.00 in0.0 mm 0.00 in0.0 mm 0.00 in0.0 mm
04:48 AM 59.7°F15.4°C 56.8°F13.8°C 90% 7.0 mph S11.3 kmh S 16.0 mph25.7 kmh 29.63 in1003.4 mb 0.00 in0.0 mm 0.00 in0.0 mm 0.00 in0.0 mm
04:47 AM 59.7°F15.4°C 56.8°F13.8°C 90% 7.0 mph S11.3 kmh S 16.0 mph25.7 kmh 29.63 in1003.4 mb 0.00 in0.0 mm 0.00 in0.0 mm 0.00 in0.0 mm
04:46 AM 59.7°F15.4°C 56.8°F13.8°C 90% 7.0 mph S11.3 kmh S 13.0 mph20.9 kmh 29.62 in1003.0 mb 0.00 in0.0 mm 0.00 in0.0 mm 0.00 in0.0 mm
04:45 AM 59.7°F15.4°C 56.8°F13.8°C 90% 7.0 mph S11.3 kmh S 15.0 mph24.1 kmh 29.63 in1003.4 mb 0.00 in0.0 mm 0.00 in0.0 mm 0.00 in0.0 mm
04:44 AM 59.7°F15.4°C 56.8°F13.8°C 90% 7.0 mph S11.3 kmh S 15.0 mph24.1 kmh 29.63 in1003.4 mb 0.00 in0.0 mm 0.00 in0.0 mm 0.00 in0.0 mm
04:43 AM 59.7°F15.4°C 56.8°F13.8°C 90% 7.0 mph S11.3 kmh S 15.0 mph24.1 kmh 29.63 in1003.4 mb 0.00 in0.0 mm 0.00 in0.0 mm 0.00 in0.0 mm
04:42 AM 59.7°F15.4°C 56.8°F13.8°C 90% 7.0 mph S11.3 kmh S 15.0 mph24.1 kmh 29.62 in1003.0 mb 0.00 in0.0 mm 0.00 in0.0 mm 0.00 in0.0 mm
04:41 AM 59.7°F15.4°C 56.8°F13.8°C 90% 7.0 mph S11.3 kmh S 15.0 mph24.1 kmh 29.62 in1003.0 mb 0.00 in0.0 mm 0.00 in0.0 mm 0.00 in0.0 mm
04:40 AM 59.9°F15.5°C 57.0°F13.9°C 90% 7.0 mph S11.3 kmh S 16.0 mph25.7 kmh 29.62 in1003.0 mb 0.00 in0.0 mm 0.00 in0.0 mm 0.00 in0.0 mm
04:39 AM 59.9°F15.5°C 57.0°F13.9°C 90% 7.0 mph S11.3 kmh S 16.0 mph25.7 kmh 29.62 in1003.0 mb 0.00 in0.0 mm 0.00 in0.0 mm 0.00 in0.0 mm
04:38 AM 59.9°F15.5°C 57.0°F13.9°C 90% 7.0 mph S11.3 kmh S 16.0 mph25.7 kmh 29.62 in1003.0 mb 0.00 in0.0 mm 0.00 in0.0 mm 0.00 in0.0 mm
04:37 AM 59.9°F15.5°C 57.0°F13.9°C 90% 7.0 mph S11.3 kmh S 16.0 mph25.7 kmh 29.62 in1003.0 mb 0.00 in0.0 mm 0.00 in0.0 mm 0.00 in0.0 mm
04:36 AM 59.9°F15.5°C 57.0°F13.9°C 90% 7.0 mph S11.3 kmh S 16.0 mph25.7 kmh 29.62 in1003.0 mb 0.00 in0.0 mm 0.00 in0.0 mm 0.00 in0.0 mm
04:35 AM 59.9°F15.5°C 57.0°F13.9°C 90% 7.0 mph S11.3 kmh S 16.0 mph25.7 kmh 29.61 in1002.7 mb 0.00 in0.0 mm 0.00 in0.0 mm 0.00 in0.0 mm
04:34 AM 59.9°F15.5°C 57.3°F14.1°C 91% 7.0 mph S11.3 kmh S 16.0 mph25.7 kmh 29.62 in1003.0 mb 0.00 in0.0 mm 0.00 in0.0 mm 0.00 in0.0 mm
04:33 AM 60.1°F15.6°C 57.1°F13.9°C 90% 7.0 mph S11.3 kmh S 16.0 mph25.7 kmh 29.62 in1003.0 mb 0.00 in0.0 mm 0.00 in0.0 mm 0.00 in0.0 mm
04:32 AM 60.1°F15.6°C 57.4°F14.1°C 91% 7.0 mph S11.3 kmh S 16.0 mph25.7 kmh 29.62 in1003.0 mb 0.00 in0.0 mm 0.00 in0.0 mm 0.00 in0.0 mm
04:31 AM 60.1°F15.6°C 57.1°F13.9°C 90% 7.0 mph S11.3 kmh S 16.0 mph25.7 kmh 29.62 in1003.0 mb 0.00 in0.0 mm 0.00 in0.0 mm 0.00 in0.0 mm
04:30 AM 60.1°F15.6°C 57.1°F13.9°C 90% 7.0 mph S11.3 kmh S 13.0 mph20.9 kmh 29.62 in1003.0 mb 0.00 in0.0 mm 0.00 in0.0 mm 0.00 in0.0 mm
04:29 AM 60.1°F15.6°C 57.1°F13.9°C 90% 7.0 mph S11.3 kmh S 13.0 mph20.9 kmh 29.62 in1003.0 mb 0.00 in0.0 mm 0.00 in0.0 mm 0.00 in0.0 mm
04:28 AM 60.1°F15.6°C 57.1°F13.9°C 90% 7.0 mph S11.3 kmh S 13.0 mph20.9 kmh 29.62 in1003.0 mb 0.00 in0.0 mm 0.00 in0.0 mm 0.00 in0.0 mm
04:27 AM 60.1°F15.6°C 57.4°F14.1°C 91% 7.0 mph SSW11.3 kmh SSW 13.0 mph20.9 kmh 29.62 in1003.0 mb 0.00 in0.0 mm 0.00 in0.0 mm 0.00 in0.0 mm
04:26 AM 60.1°F15.6°C 57.4°F14.1°C 91% 7.0 mph SSW11.3 kmh SSW 13.0 mph20.9 kmh 29.62 in1003.0 mb 0.00 in0.0 mm 0.00 in0.0 mm 0.00 in0.0 mm
04:25 AM 60.3°F15.7°C 57.3°F14.1°C 90% 7.0 mph S11.3 kmh S 13.0 mph20.9 kmh 29.62 in1003.0 mb 0.00 in0.0 mm 0.00 in0.0 mm 0.00 in0.0 mm
04:24 AM 60.3°F15.7°C 57.6°F14.2°C 91% 7.0 mph S11.3 kmh S 13.0 mph20.9 kmh 29.62 in1003.0 mb 0.00 in0.0 mm 0.00 in0.0 mm 0.00 in0.0 mm
04:23 AM 60.3°F15.7°C 57.3°F14.1°C 90% 7.0 mph S11.3 kmh S 15.0 mph24.1 kmh 29.62 in1003.0 mb 0.00 in0.0 mm 0.00 in0.0 mm 0.00 in0.0 mm
04:22 AM 60.3°F15.7°C 57.3°F14.1°C 90% 7.0 mph S11.3 kmh S 15.0 mph24.1 kmh 29.62 in1003.0 mb 0.00 in0.0 mm 0.00 in0.0 mm 0.00 in0.0 mm
04:21 AM 60.3°F15.7°C 57.3°F14.1°C 90% 7.0 mph S11.3 kmh S 15.0 mph24.1 kmh 29.62 in1003.0 mb 0.00 in0.0 mm 0.00 in0.0 mm 0.00 in0.0 mm
04:20 AM 60.3°F15.7°C 57.3°F14.1°C 90% 7.0 mph S11.3 kmh S 15.0 mph24.1 kmh 29.62 in1003.0 mb 0.00 in0.0 mm 0.00 in0.0 mm 0.00 in0.0 mm
04:19 AM 60.3°F15.7°C 57.3°F14.1°C 90% 7.0 mph S11.3 kmh S 15.0 mph24.1 kmh 29.62 in1003.0 mb 0.00 in0.0 mm 0.00 in0.0 mm 0.00 in0.0 mm
04:18 AM 60.3°F15.7°C 57.3°F14.1°C 90% 7.0 mph S11.3 kmh S 15.0 mph24.1 kmh 29.62 in1003.0 mb 0.00 in0.0 mm 0.00 in0.0 mm 0.00 in0.0 mm
04:17 AM 60.3°F15.7°C 57.3°F14.1°C 90% 7.0 mph S11.3 kmh S 15.0 mph24.1 kmh 29.62 in1003.0 mb 0.00 in0.0 mm 0.00 in0.0 mm 0.00 in0.0 mm
04:16 AM 60.3°F15.7°C 57.3°F14.1°C 90% 7.0 mph S11.3 kmh S 15.0 mph24.1 kmh 29.62 in1003.0 mb 0.00 in0.0 mm 0.00 in0.0 mm 0.00 in0.0 mm
04:15 AM 60.3°F15.7°C 57.3°F14.1°C 90% 7.0 mph S11.3 kmh S 15.0 mph24.1 kmh 29.62 in1003.0 mb 0.00 in0.0 mm 0.00 in0.0 mm 0.00 in0.0 mm
04:14 AM 60.3°F15.7°C 57.3°F14.1°C 90% 7.0 mph S11.3 kmh S 15.0 mph24.1 kmh 29.62 in1003.0 mb 0.00 in0.0 mm 0.00 in0.0 mm 0.00 in0.0 mm
04:13 AM 60.3°F15.7°C 57.3°F14.1°C 90% 7.0 mph S11.3 kmh S 15.0 mph24.1 kmh 29.62 in1003.0 mb 0.00 in0.0 mm 0.00 in0.0 mm 0.00 in0.0 mm
04:12 AM 60.4°F15.8°C 57.5°F14.2°C 90% 7.0 mph S11.3 kmh S 15.0 mph24.1 kmh 29.62 in1003.0 mb 0.00 in0.0 mm 0.00 in0.0 mm 0.00 in0.0 mm
04:11 AM 60.4°F15.8°C 57.5°F14.2°C 90% 7.0 mph S11.3 kmh S 15.0 mph24.1 kmh 29.62 in1003.0 mb 0.00 in0.0 mm 0.00 in0.0 mm 0.00 in0.0 mm
04:10 AM 60.4°F15.8°C 57.5°F14.2°C 90% 7.0 mph S11.3 kmh S 15.0 mph24.1 kmh 29.62 in1003.0 mb 0.00 in0.0 mm 0.00 in0.0 mm 0.00 in0.0 mm
04:09 AM 60.4°F15.8°C 57.5°F14.2°C 90% 7.0 mph S11.3 kmh S 15.0 mph24.1 kmh 29.62 in1003.0 mb 0.00 in0.0 mm 0.00 in0.0 mm 0.00 in0.0 mm
04:08 AM 60.4°F15.8°C 57.5°F14.2°C 90% 7.0 mph SSW11.3 kmh SSW 15.0 mph24.1 kmh 29.62 in1003.0 mb 0.00 in0.0 mm 0.00 in0.0 mm 0.00 in0.0 mm
04:07 AM 60.4°F15.8°C 57.5°F14.2°C 90% 7.0 mph SSW11.3 kmh SSW 15.0 mph24.1 kmh 29.63 in1003.4 mb 0.00 in0.0 mm 0.00 in0.0 mm 0.00 in0.0 mm
04:06 AM 60.4°F15.8°C 57.5°F14.2°C 90% 7.0 mph S11.3 kmh S 13.0 mph20.9 kmh 29.63 in1003.4 mb 0.00 in0.0 mm 0.00 in0.0 mm 0.00 in0.0 mm
04:05 AM 60.4°F15.8°C 57.5°F14.2°C 90% 7.0 mph S11.3 kmh S 13.0 mph20.9 kmh 29.62 in1003.0 mb 0.00 in0.0 mm 0.00 in0.0 mm 0.00 in0.0 mm
04:04 AM 60.4°F15.8°C 57.5°F14.2°C 90% 7.0 mph S11.3 kmh S 13.0 mph20.9 kmh 29.63 in1003.4 mb 0.00 in0.0 mm 0.00 in0.0 mm 0.00 in0.0 mm
04:03 AM 60.4°F15.8°C 57.5°F14.2°C 90% 7.0 mph S11.3 kmh S 13.0 mph20.9 kmh 29.62 in1003.0 mb 0.00 in0.0 mm 0.00 in0.0 mm 0.00 in0.0 mm
04:02 AM 60.4°F15.8°C 57.5°F14.2°C 90% 8.0 mph S12.9 kmh S 13.0 mph20.9 kmh 29.62 in1003.0 mb 0.00 in0.0 mm 0.00 in0.0 mm 0.00 in0.0 mm
04:01 AM 60.4°F15.8°C 57.5°F14.2°C 90% 8.0 mph S12.9 kmh S 13.0 mph20.9 kmh 29.62 in1003.0 mb 0.00 in0.0 mm 0.00 in0.0 mm 0.00 in0.0 mm
04:00 AM 60.4°F15.8°C 57.5°F14.2°C 90% 8.0 mph S12.9 kmh S 13.0 mph20.9 kmh 29.62 in1003.0 mb 0.00 in0.0 mm 0.00 in0.0 mm 0.00 in0.0 mm
03:59 AM 60.4°F15.8°C 57.5°F14.2°C 90% 8.0 mph S12.9 kmh S 13.0 mph20.9 kmh 29.62 in1003.0 mb 0.00 in0.0 mm 0.00 in0.0 mm 0.00 in0.0 mm
03:58 AM 60.6°F15.9°C 57.7°F14.3°C 90% 8.0 mph S12.9 kmh S 13.0 mph20.9 kmh 29.62 in1003.0 mb 0.00 in0.0 mm 0.00 in0.0 mm 0.00 in0.0 mm
03:57 AM 60.4°F15.8°C 57.5°F14.2°C 90% 9.0 mph SSW14.5 kmh SSW 15.0 mph24.1 kmh 29.63 in1003.4 mb 0.00 in0.0 mm 0.00 in0.0 mm 0.00 in0.0 mm
03:56 AM 60.4°F15.8°C 57.5°F14.2°C 90% 9.0 mph SSW14.5 kmh SSW 15.0 mph24.1 kmh 29.62 in1003.0 mb 0.00 in0.0 mm 0.00 in0.0 mm 0.00 in0.0 mm
03:55 AM 60.6°F15.9°C 57.7°F14.3°C 90% 9.0 mph SSW14.5 kmh SSW 15.0 mph24.1 kmh 29.62 in1003.0 mb 0.00 in0.0 mm 0.00 in0.0 mm 0.00 in0.0 mm
03:54 AM 60.6°F15.9°C 57.7°F14.3°C 90% 9.0 mph SSW14.5 kmh SSW 15.0 mph24.1 kmh 29.62 in1003.0 mb 0.00 in0.0 mm 0.00 in0.0 mm 0.00 in0.0 mm
03:53 AM 60.6°F15.9°C 57.7°F14.3°C 90% 10.0 mph SSW16.1 kmh SSW 15.0 mph24.1 kmh 29.62 in1003.0 mb 0.00 in0.0 mm 0.00 in0.0 mm 0.00 in0.0 mm
03:52 AM 60.6°F15.9°C 57.7°F14.3°C 90% 10.0 mph SSW16.1 kmh SSW 15.0 mph24.1 kmh 29.62 in1003.0 mb 0.00 in0.0 mm 0.00 in0.0 mm 0.00 in0.0 mm
03:51 AM 60.6°F15.9°C 57.7°F14.3°C 90% 10.0 mph SSW16.1 kmh SSW 15.0 mph24.1 kmh 29.62 in1003.0 mb 0.00 in0.0 mm 0.00 in0.0 mm 0.00 in0.0 mm
03:50 AM 60.6°F15.9°C 57.7°F14.3°C 90% 10.0 mph SSW16.1 kmh SSW 15.0 mph24.1 kmh 29.62 in1003.0 mb 0.00 in0.0 mm 0.00 in0.0 mm 0.00 in0.0 mm
03:49 AM 60.6°F15.9°C 57.7°F14.3°C 90% 10.0 mph SSW16.1 kmh SSW 15.0 mph24.1 kmh 29.63 in1003.4 mb 0.00 in0.0 mm 0.00 in0.0 mm 0.00 in0.0 mm
03:48 AM 60.6°F15.9°C 57.7°F14.3°C 90% 10.0 mph SSW16.1 kmh SSW 15.0 mph24.1 kmh 29.62 in1003.0 mb 0.00 in0.0 mm 0.00 in0.0 mm 0.00 in0.0 mm
03:47 AM 60.6°F15.9°C 57.7°F14.3°C 90% 11.0 mph SSW17.7 kmh SSW 17.0 mph27.4 kmh 29.63 in1003.4 mb 0.00 in0.0 mm 0.00 in0.0 mm 0.00 in0.0 mm
03:46 AM 60.6°F15.9°C 57.7°F14.3°C 90% 10.0 mph SW16.1 kmh SW 17.0 mph27.4 kmh 29.62 in1003.0 mb 0.00 in0.0 mm 0.00 in0.0 mm 0.00 in0.0 mm
03:45 AM 60.6°F15.9°C 57.7°F14.3°C 90% 10.0 mph SW16.1 kmh SW 18.0 mph29.0 kmh 29.62 in1003.0 mb 0.00 in0.0 mm 0.00 in0.0 mm 0.00 in0.0 mm
03:44 AM 60.6°F15.9°C 57.7°F14.3°C 90% 10.0 mph SW16.1 kmh SW 18.0 mph29.0 kmh 29.62 in1003.0 mb 0.00 in0.0 mm 0.00 in0.0 mm 0.00 in0.0 mm
03:43 AM 60.6°F15.9°C 57.7°F14.3°C 90% 11.0 mph SW17.7 kmh SW 18.0 mph29.0 kmh 29.62 in1003.0 mb 0.00 in0.0 mm 0.00 in0.0 mm 0.00 in0.0 mm
03:42 AM 60.6°F15.9°C 57.7°F14.3°C 90% 10.0 mph SW16.1 kmh SW 18.0 mph29.0 kmh 29.62 in1003.0 mb 0.00 in0.0 mm 0.00 in0.0 mm 0.00 in0.0 mm
03:41 AM 60.6°F15.9°C 57.7°F14.3°C 90% 10.0 mph SW16.1 kmh SW 18.0 mph29.0 kmh 29.62 in1003.0 mb 0.00 in0.0 mm 0.00 in0.0 mm 0.00 in0.0 mm
03:40 AM 60.6°F15.9°C 57.7°F14.3°C 90% 10.0 mph SW16.1 kmh SW 18.0 mph29.0 kmh 29.62 in1003.0 mb 0.00 in0.0 mm 0.00 in0.0 mm 0.00 in0.0 mm
03:39 AM 60.6°F15.9°C 57.7°F14.3°C 90% 10.0 mph SW16.1 kmh SW 18.0 mph29.0 kmh 29.62 in1003.0 mb 0.00 in0.0 mm 0.00 in0.0 mm 0.00 in0.0 mm
03:38 AM 60.6°F15.9°C 57.7°F14.3°C 90% 10.0 mph SW16.1 kmh SW 18.0 mph29.0 kmh 29.62 in1003.0 mb 0.00 in0.0 mm 0.00 in0.0 mm 0.00 in0.0 mm
03:37 AM 60.6°F15.9°C 57.7°F14.3°C 90% 10.0 mph SW16.1 kmh SW 18.0 mph29.0 kmh 29.62 in1003.0 mb 0.00 in0.0 mm 0.00 in0.0 mm 0.00 in0.0 mm
03:36 AM 60.6°F15.9°C 57.7°F14.3°C 90% 10.0 mph SW16.1 kmh SW 18.0 mph29.0 kmh 29.63 in1003.4 mb 0.00 in0.0 mm 0.00 in0.0 mm 0.00 in0.0 mm
03:35 AM 60.6°F15.9°C 57.7°F14.3°C 90% 10.0 mph SW16.1 kmh SW 16.0 mph25.7 kmh 29.62 in1003.0 mb 0.00 in0.0 mm 0.00 in0.0 mm 0.00 in0.0 mm
03:34 AM 60.6°F15.9°C 57.7°F14.3°C 90% 10.0 mph SW16.1 kmh SW 16.0 mph25.7 kmh 29.62 in1003.0 mb 0.00 in0.0 mm 0.00 in0.0 mm 0.00 in0.0 mm
03:33 AM 60.6°F15.9°C 57.7°F14.3°C 90% 10.0 mph SW16.1 kmh SW 16.0 mph25.7 kmh 29.62 in1003.0 mb 0.00 in0.0 mm 0.00 in0.0 mm 0.00 in0.0 mm
03:32 AM 60.6°F15.9°C 57.7°F14.3°C 90% 10.0 mph SW16.1 kmh SW 16.0 mph25.7 kmh 29.62 in1003.0 mb 0.00 in0.0 mm 0.00 in0.0 mm 0.00 in0.0 mm
03:31 AM 60.6°F15.9°C 57.7°F14.3°C 90% 10.0 mph SW16.1 kmh SW 18.0 mph29.0 kmh 29.62 in1003.0 mb 0.00 in0.0 mm 0.00 in0.0 mm 0.00 in0.0 mm
03:30 AM 60.6°F15.9°C 57.7°F14.3°C 90% 10.0 mph SW16.1 kmh SW 19.0 mph30.6 kmh 29.62 in1003.0 mb 0.00 in0.0 mm 0.00 in0.0 mm 0.00 in0.0 mm
03:29 AM 60.6°F15.9°C 57.7°F14.3°C 90% 10.0 mph SW16.1 kmh SW 19.0 mph30.6 kmh 29.62 in1003.0 mb 0.00 in0.0 mm 0.00 in0.0 mm 0.00 in0.0 mm
03:28 AM 60.6°F15.9°C 57.7°F14.3°C 90% 10.0 mph SW16.1 kmh SW 19.0 mph30.6 kmh 29.63 in1003.4 mb 0.00 in0.0 mm 0.00 in0.0 mm 0.00 in0.0 mm
03:27 AM 60.6°F15.9°C 57.7°F14.3°C 90% 11.0 mph SW17.7 kmh SW 19.0 mph30.6 kmh 29.63 in1003.4 mb 0.00 in0.0 mm 0.00 in0.0 mm 0.00 in0.0 mm
03:26 AM 60.6°F15.9°C 57.7°F14.3°C 90% 11.0 mph SW17.7 kmh SW 19.0 mph30.6 kmh 29.63 in1003.4 mb 0.00 in0.0 mm 0.00 in0.0 mm 0.00 in0.0 mm
03:25 AM 60.6°F15.9°C 57.7°F14.3°C 90% 11.0 mph SW17.7 kmh SW 19.0 mph30.6 kmh 29.63 in1003.4 mb 0.00 in0.0 mm 0.00 in0.0 mm 0.00 in0.0 mm
03:24 AM 60.6°F15.9°C 57.7°F14.3°C 90% 11.0 mph SW17.7 kmh SW 19.0 mph30.6 kmh 29.63 in1003.4 mb 0.00 in0.0 mm 0.00 in0.0 mm 0.00 in0.0 mm
03:23 AM 60.6°F15.9°C 57.7°F14.3°C 90% 11.0 mph SW17.7 kmh SW 19.0 mph30.6 kmh 29.62 in1003.0 mb 0.00 in0.0 mm 0.00 in0.0 mm 0.00 in0.0 mm
03:22 AM 60.6°F15.9°C 57.7°F14.3°C 90% 11.0 mph SW17.7 kmh SW 19.0 mph30.6 kmh 29.62 in1003.0 mb 0.00 in0.0 mm 0.00 in0.0 mm 0.00 in0.0 mm
03:21 AM 60.6°F15.9°C 57.7°F14.3°C 90% 11.0 mph SW17.7 kmh SW 19.0 mph30.6 kmh 29.62 in1003.0 mb 0.00 in0.0 mm 0.00 in0.0 mm 0.00 in0.0 mm
03:20 AM 60.6°F15.9°C 57.7°F14.3°C 90% 11.0 mph SW17.7 kmh SW 17.0 mph27.4 kmh 29.62 in1003.0 mb 0.00 in0.0 mm 0.00 in0.0 mm 0.00 in0.0 mm
03:19 AM 60.6°F15.9°C 57.7°F14.3°C 90% 11.0 mph SW17.7 kmh SW 17.0 mph27.4 kmh 29.62 in1003.0 mb 0.00 in0.0 mm 0.00 in0.0 mm 0.00 in0.0 mm
03:18 AM 60.6°F15.9°C 57.7°F14.3°C 90% 11.0 mph SW17.7 kmh SW 17.0 mph27.4 kmh 29.62 in1003.0 mb 0.00 in0.0 mm 0.00 in0.0 mm 0.00 in0.0 mm
03:17 AM 60.6°F15.9°C 57.7°F14.3°C 90% 11.0 mph SW17.7 kmh SW 17.0 mph27.4 kmh 29.62 in1003.0 mb 0.00 in0.0 mm 0.00 in0.0 mm 0.00 in0.0 mm
03:16 AM 60.6°F15.9°C 57.7°F14.3°C 90% 11.0 mph SW17.7 kmh SW 17.0 mph27.4 kmh 29.61 in1002.7 mb 0.00 in0.0 mm 0.00 in0.0 mm 0.00 in0.0 mm
03:15 AM 60.6°F15.9°C 57.7°F14.3°C 90% 11.0 mph SW17.7 kmh SW 17.0 mph27.4 kmh 29.61 in1002.7 mb 0.00 in0.0 mm 0.00 in0.0 mm 0.00 in0.0 mm
03:14 AM 60.6°F15.9°C 57.7°F14.3°C 90% 11.0 mph SW17.7 kmh SW 18.0 mph29.0 kmh 29.61 in1002.7 mb 0.00 in0.0 mm 0.00 in0.0 mm 0.00 in0.0 mm
03:13 AM 60.6°F15.9°C 57.7°F14.3°C 90% 11.0 mph SW17.7 kmh SW 18.0 mph29.0 kmh 29.61 in1002.7 mb 0.00 in0.0 mm 0.00 in0.0 mm 0.00 in0.0 mm
03:12 AM 60.6°F15.9°C 57.7°F14.3°C 90% 11.0 mph SW17.7 kmh SW 18.0 mph29.0 kmh 29.61 in1002.7 mb 0.00 in0.0 mm 0.00 in0.0 mm 0.00 in0.0 mm
03:11 AM 60.6°F15.9°C 57.7°F14.3°C 90% 11.0 mph SW17.7 kmh SW 19.0 mph30.6 kmh 29.61 in1002.7 mb 0.00 in0.0 mm 0.00 in0.0 mm 0.00 in0.0 mm
03:10 AM 60.6°F15.9°C 57.7°F14.3°C 90% 11.0 mph SW17.7 kmh SW 19.0 mph30.6 kmh 29.61 in1002.7 mb 0.00 in0.0 mm 0.00 in0.0 mm 0.00 in0.0 mm
03:09 AM 60.6°F15.9°C 57.7°F14.3°C 90% 11.0 mph SW17.7 kmh SW 19.0 mph30.6 kmh 29.61 in1002.7 mb 0.00 in0.0 mm 0.00 in0.0 mm 0.00 in0.0 mm
03:08 AM 60.6°F15.9°C 57.7°F14.3°C 90% 10.0 mph SW16.1 kmh SW 19.0 mph30.6 kmh 29.61 in1002.7 mb 0.00 in0.0 mm 0.00 in0.0 mm 0.00 in0.0 mm
03:07 AM 60.6°F15.9°C 57.7°F14.3°C 90% 10.0 mph SW16.1 kmh SW 19.0 mph30.6 kmh 29.61 in1002.7 mb 0.00 in0.0 mm 0.00 in0.0 mm 0.00 in0.0 mm
03:06 AM 60.8°F16.0°C 57.8°F14.3°C 90% 10.0 mph SW16.1 kmh SW 19.0 mph30.6 kmh 29.61 in1002.7 mb 0.00 in0.0 mm 0.00 in0.0 mm 0.00 in0.0 mm
03:05 AM 60.8°F16.0°C 57.8°F14.3°C 90% 10.0 mph SW16.1 kmh SW 19.0 mph30.6 kmh 29.61 in1002.7 mb 0.00 in0.0 mm 0.00 in0.0 mm 0.00 in0.0 mm
03:04 AM 60.8°F16.0°C 57.8°F14.3°C 90% 10.0 mph SW16.1 kmh SW 19.0 mph30.6 kmh 29.61 in1002.7 mb 0.00 in0.0 mm 0.00 in0.0 mm 0.00 in0.0 mm
03:03 AM 60.8°F16.0°C 57.8°F14.3°C 90% 11.0 mph SW17.7 kmh SW 19.0 mph30.6 kmh 29.61 in1002.7 mb 0.00 in0.0 mm 0.00 in0.0 mm 0.00 in0.0 mm
03:02 AM 61.0°F16.1°C 58.0°F14.4°C 90% 11.0 mph SW17.7 kmh SW 19.0 mph30.6 kmh 29.61 in1002.7 mb 0.00 in0.0 mm 0.00 in0.0 mm 0.00 in0.0 mm
03:01 AM 61.0°F16.1°C 58.0°F14.4°C 90% 11.0 mph SW17.7 kmh SW 19.0 mph30.6 kmh 29.61 in1002.7 mb 0.00 in0.0 mm 0.00 in0.0 mm 0.00 in0.0 mm
03:00 AM 61.0°F16.1°C 58.0°F14.4°C 90% 11.0 mph SW17.7 kmh SW 19.0 mph30.6 kmh 29.61 in1002.7 mb 0.00 in0.0 mm 0.00 in0.0 mm 0.00 in0.0 mm
02:59 AM 61.0°F16.1°C 58.0°F14.4°C 90% 11.0 mph SW17.7 kmh SW 19.0 mph30.6 kmh 29.61 in1002.7 mb 0.00 in0.0 mm 0.00 in0.0 mm 0.00 in0.0 mm
02:58 AM 61.0°F16.1°C 58.0°F14.4°C 90% 11.0 mph SW17.7 kmh SW 19.0 mph30.6 kmh 29.61 in1002.7 mb 0.00 in0.0 mm 0.00 in0.0 mm 0.00 in0.0 mm
02:57 AM 61.0°F16.1°C 58.0°F14.4°C 90% 11.0 mph SW17.7 kmh SW 19.0 mph30.6 kmh 29.62 in1003.0 mb 0.00 in0.0 mm 0.00 in0.0 mm 0.00 in0.0 mm
02:56 AM 61.0°F16.1°C 58.0°F14.4°C 90% 11.0 mph SW17.7 kmh SW 19.0 mph30.6 kmh 29.62 in1003.0 mb 0.00 in0.0 mm 0.00 in0.0 mm 0.00 in0.0 mm
02:55 AM 61.0°F16.1°C 57.7°F14.3°C 89% 11.0 mph SW17.7 kmh SW 19.0 mph30.6 kmh 29.62 in1003.0 mb 0.00 in0.0 mm 0.00 in0.0 mm 0.00 in0.0 mm
02:54 AM 61.0°F16.1°C 57.7°F14.3°C 89% 11.0 mph SW17.7 kmh SW 19.0 mph30.6 kmh 29.62 in1003.0 mb 0.00 in0.0 mm 0.00 in0.0 mm 0.00 in0.0 mm
02:53 AM 61.2°F16.2°C 58.2°F14.6°C 90% 12.0 mph SW19.3 kmh SW 17.0 mph27.4 kmh 29.62 in1003.0 mb 0.00 in0.0 mm 0.00 in0.0 mm 0.00 in0.0 mm
02:52 AM 61.2°F16.2°C 58.2°F14.6°C 90% 12.0 mph SW19.3 kmh SW 17.0 mph27.4 kmh 29.62 in1003.0 mb 0.00 in0.0 mm 0.00 in0.0 mm 0.00 in0.0 mm
02:51 AM 61.2°F16.2°C 58.2°F14.6°C 90% 12.0 mph SW19.3 kmh SW 17.0 mph27.4 kmh 29.62 in1003.0 mb 0.00 in0.0 mm 0.00 in0.0 mm 0.00 in0.0 mm
02:50 AM 61.2°F16.2°C 58.2°F14.6°C 90% 12.0 mph SW19.3 kmh SW 17.0 mph27.4 kmh 29.61 in1002.7 mb 0.00 in0.0 mm 0.00 in0.0 mm 0.00 in0.0 mm
02:49 AM 61.3°F16.3°C 58.4°F14.7°C 90% 12.0 mph SW19.3 kmh SW 17.0 mph27.4 kmh 29.61 in1002.7 mb 0.00 in0.0 mm 0.00 in0.0 mm 0.00 in0.0 mm
02:48 AM 61.3°F16.3°C 58.4°F14.7°C 90% 13.0 mph SW20.9 kmh SW 17.0 mph27.4 kmh 29.61 in1002.7 mb 0.00 in0.0 mm 0.00 in0.0 mm 0.00 in0.0 mm
02:47 AM 61.3°F16.3°C 58.4°F14.7°C 90% 13.0 mph SW20.9 kmh SW 19.0 mph30.6 kmh 29.61 in1002.7 mb 0.00 in0.0 mm 0.00 in0.0 mm 0.00 in0.0 mm
02:46 AM 61.3°F16.3°C 58.4°F14.7°C 90% 13.0 mph SW20.9 kmh SW 19.0 mph30.6 kmh 29.61 in1002.7 mb 0.00 in0.0 mm 0.00 in0.0 mm 0.00 in0.0 mm
02:45 AM 61.3°F16.3°C 58.4°F14.7°C 90% 13.0 mph SW20.9 kmh SW 19.0 mph30.6 kmh 29.61 in1002.7 mb 0.00 in0.0 mm 0.00 in0.0 mm 0.00 in0.0 mm
02:44 AM 61.5°F16.4°C 58.6°F14.8°C 90% 13.0 mph SW20.9 kmh SW 20.0 mph32.2 kmh 29.62 in1003.0 mb 0.00 in0.0 mm 0.00 in0.0 mm 0.00 in0.0 mm
02:43 AM 61.5°F16.4°C 58.6°F14.8°C 90% 13.0 mph SW20.9 kmh SW 20.0 mph32.2 kmh 29.62 in1003.0 mb 0.00 in0.0 mm 0.00 in0.0 mm 0.00 in0.0 mm
02:42 AM 61.5°F16.4°C 58.6°F14.8°C 90% 12.0 mph SW19.3 kmh SW 21.0 mph33.8 kmh 29.62 in1003.0 mb 0.00 in0.0 mm 0.00 in0.0 mm 0.00 in0.0 mm
02:41 AM 61.5°F16.4°C 58.6°F14.8°C 90% 12.0 mph SW19.3 kmh SW 21.0 mph33.8 kmh 29.61 in1002.7 mb 0.00 in0.0 mm 0.00 in0.0 mm 0.00 in0.0 mm
02:40 AM 61.7°F16.5°C 58.7°F14.8°C 90% 12.0 mph SW19.3 kmh SW 21.0 mph33.8 kmh 29.62 in1003.0 mb 0.00 in0.0 mm 0.00 in0.0 mm 0.00 in0.0 mm
02:39 AM 61.7°F16.5°C 58.7°F14.8°C 90% 12.0 mph SW19.3 kmh SW 21.0 mph33.8 kmh 29.62 in1003.0 mb 0.00 in0.0 mm 0.00 in0.0 mm 0.00 in0.0 mm
02:38 AM 61.7°F16.5°C 58.7°F14.8°C 90% 12.0 mph SW19.3 kmh SW 21.0 mph33.8 kmh 29.62 in1003.0 mb 0.00 in0.0 mm 0.00 in0.0 mm 0.00 in0.0 mm
02:37 AM 61.9°F16.6°C 58.9°F14.9°C 90% 11.0 mph SW17.7 kmh SW 21.0 mph33.8 kmh 29.62 in1003.0 mb 0.00 in0.0 mm 0.00 in0.0 mm 0.00 in0.0 mm
02:36 AM 61.9°F16.6°C 58.9°F14.9°C 90% 11.0 mph SW17.7 kmh SW 21.0 mph33.8 kmh 29.62 in1003.0 mb 0.00 in0.0 mm 0.00 in0.0 mm 0.00 in0.0 mm
02:35 AM 61.9°F16.6°C 58.9°F14.9°C 90% 11.0 mph SW17.7 kmh SW 21.0 mph33.8 kmh 29.62 in1003.0 mb 0.00 in0.0 mm 0.00 in0.0 mm 0.00 in0.0 mm
02:34 AM 61.9°F16.6°C 58.9°F14.9°C 90% 10.0 mph SW16.1 kmh SW 21.0 mph33.8 kmh 29.62 in1003.0 mb 0.00 in0.0 mm 0.00 in0.0 mm 0.00 in0.0 mm
02:33 AM 61.9°F16.6°C 58.9°F14.9°C 90% 10.0 mph SW16.1 kmh SW 21.0 mph33.8 kmh 29.62 in1003.0 mb 0.00 in0.0 mm 0.00 in0.0 mm 0.00 in0.0 mm
02:32 AM 61.9°F16.6°C 58.9°F14.9°C 90% 10.0 mph SW16.1 kmh SW 20.0 mph32.2 kmh 29.62 in1003.0 mb 0.00 in0.0 mm 0.00 in0.0 mm 0.00 in0.0 mm
02:31 AM 61.9°F16.6°C 58.9°F14.9°C 90% 9.0 mph SW14.5 kmh SW 20.0 mph32.2 kmh 29.62 in1003.0 mb 0.00 in0.0 mm 0.00 in0.0 mm 0.00 in0.0 mm
02:30 AM 61.9°F16.6°C 58.9°F14.9°C 90% 9.0 mph SW14.5 kmh SW 20.0 mph32.2 kmh 29.62 in1003.0 mb 0.00 in0.0 mm 0.00 in0.0 mm 0.00 in0.0 mm
02:29 AM 61.9°F16.6°C 59.2°F15.1°C 91% 8.0 mph SW12.9 kmh SW 20.0 mph32.2 kmh 29.62 in1003.0 mb 0.00 in0.0 mm 0.00 in0.0 mm 0.00 in0.0 mm
02:28 AM 61.9°F16.6°C 59.2°F15.1°C 91% 8.0 mph SW12.9 kmh SW 19.0 mph30.6 kmh 29.62 in1003.0 mb 0.00 in0.0 mm 0.00 in0.0 mm 0.00 in0.0 mm
02:27 AM 61.9°F16.6°C 59.2°F15.1°C 91% 8.0 mph SW12.9 kmh SW 19.0 mph30.6 kmh 29.62 in1003.0 mb 0.00 in0.0 mm 0.00 in0.0 mm 0.00 in0.0 mm
02:26 AM 61.9°F16.6°C 59.2°F15.1°C 91% 8.0 mph SW12.9 kmh SW 19.0 mph30.6 kmh 29.62 in1003.0 mb 0.00 in0.0 mm 0.00 in0.0 mm 0.00 in0.0 mm
02:25 AM 61.9°F16.6°C 59.2°F15.1°C 91% 8.0 mph SSW12.9 kmh SSW 19.0 mph30.6 kmh 29.62 in1003.0 mb 0.00 in0.0 mm 0.00 in0.0 mm 0.00 in0.0 mm
02:24 AM 61.9°F16.6°C 59.5°F15.3°C 92% 7.0 mph SSW11.3 kmh SSW 17.0 mph27.4 kmh 29.62 in1003.0 mb 0.00 in0.0 mm 0.00 in0.0 mm 0.00 in0.0 mm
02:23 AM 61.9°F16.6°C 59.5°F15.3°C 92% 7.0 mph SSW11.3 kmh SSW 16.0 mph25.7 kmh 29.62 in1003.0 mb 0.00 in0.0 mm 0.00 in0.0 mm 0.00 in0.0 mm
02:22 AM 61.7°F16.5°C 59.4°F15.2°C 92% 7.0 mph SSW11.3 kmh SSW 16.0 mph25.7 kmh 29.62 in1003.0 mb 0.00 in0.0 mm 0.00 in0.0 mm 0.00 in0.0 mm
02:21 AM 61.7°F16.5°C 59.4°F15.2°C 92% 7.0 mph SSW11.3 kmh SSW 14.0 mph22.5 kmh 29.62 in1003.0 mb 0.00 in0.0 mm 0.00 in0.0 mm 0.00 in0.0 mm
02:20 AM 61.5°F16.4°C 59.2°F15.1°C 92% 7.0 mph SSW11.3 kmh SSW 14.0 mph22.5 kmh 29.62 in1003.0 mb 0.00 in0.0 mm 0.00 in0.0 mm 0.00 in0.0 mm
02:19 AM 61.5°F16.4°C 59.2°F15.1°C 92% 7.0 mph SSW11.3 kmh SSW 14.0 mph22.5 kmh 29.62 in1003.0 mb 0.00 in0.0 mm 0.00 in0.0 mm 0.00 in0.0 mm
02:18 AM 61.5°F16.4°C 59.5°F15.3°C 93% 7.0 mph S11.3 kmh S 14.0 mph22.5 kmh 29.62 in1003.0 mb 0.00 in0.0 mm 0.00 in0.0 mm 0.00 in0.0 mm
02:17 AM 61.5°F16.4°C 59.5°F15.3°C 93% 7.0 mph S11.3 kmh S 15.0 mph24.1 kmh 29.62 in1003.0 mb 0.00 in0.0 mm 0.00 in0.0 mm 0.00 in0.0 mm
02:16 AM 61.5°F16.4°C 59.5°F15.3°C 93% 7.0 mph S11.3 kmh S 15.0 mph24.1 kmh 29.62 in1003.0 mb 0.00 in0.0 mm 0.00 in0.0 mm 0.00 in0.0 mm
02:15 AM 61.3°F16.3°C 59.3°F15.2°C 93% 7.0 mph S11.3 kmh S 18.0 mph29.0 kmh 29.62 in1003.0 mb 0.00 in0.0 mm 0.00 in0.0 mm 0.00 in0.0 mm
02:14 AM 61.3°F16.3°C 59.3°F15.2°C 93% 7.0 mph S11.3 kmh S 18.0 mph29.0 kmh 29.62 in1003.0 mb 0.00 in0.0 mm 0.00 in0.0 mm 0.00 in0.0 mm
02:13 AM 61.3°F16.3°C 59.6°F15.3°C 94% 7.0 mph S11.3 kmh S 18.0 mph29.0 kmh 29.62 in1003.0 mb 0.00 in0.0 mm 0.00 in0.0 mm 0.00 in0.0 mm
02:12 AM 61.3°F16.3°C 59.6°F15.3°C 94% 7.0 mph S11.3 kmh S 18.0 mph29.0 kmh 29.62 in1003.0 mb 0.00 in0.0 mm 0.00 in0.0 mm 0.00 in0.0 mm
02:11 AM 61.3°F16.3°C 59.6°F15.3°C 94% 7.0 mph S11.3 kmh S 18.0 mph29.0 kmh 29.62 in1003.0 mb 0.00 in0.0 mm 0.00 in0.0 mm 0.00 in0.0 mm
02:10 AM 61.2°F16.2°C 59.4°F15.2°C 94% 7.0 mph S11.3 kmh S 18.0 mph29.0 kmh 29.62 in1003.0 mb 0.00 in0.0 mm 0.00 in0.0 mm 0.00 in0.0 mm
02:09 AM 61.2°F16.2°C 59.4°F15.2°C 94% 7.0 mph S11.3 kmh S 18.0 mph29.0 kmh 29.62 in1003.0 mb 0.00 in0.0 mm 0.00 in0.0 mm 0.00 in0.0 mm
02:08 AM 61.2°F16.2°C 59.4°F15.2°C 94% 7.0 mph S11.3 kmh S 18.0 mph29.0 kmh 29.62 in1003.0 mb 0.00 in0.0 mm 0.00 in0.0 mm 0.00 in0.0 mm
02:07 AM 61.2°F16.2°C 59.4°F15.2°C 94% 7.0 mph S11.3 kmh S 18.0 mph29.0 kmh 29.62 in1003.0 mb 0.00 in0.0 mm 0.00 in0.0 mm 0.00 in0.0 mm
02:06 AM 61.0°F16.1°C 59.2°F15.1°C 94% 7.0 mph S11.3 kmh S 18.0 mph29.0 kmh 29.62 in1003.0 mb 0.00 in0.0 mm 0.00 in0.0 mm 0.00 in0.0 mm
02:05 AM 61.0°F16.1°C 59.2°F15.1°C 94% 7.0 mph S11.3 kmh S 17.0 mph27.4 kmh 29.62 in1003.0 mb 0.00 in0.0 mm 0.00 in0.0 mm 0.00 in0.0 mm
02:04 AM 61.0°F16.1°C 59.2°F15.1°C 94% 6.0 mph S9.7 kmh S 17.0 mph27.4 kmh 29.62 in1003.0 mb 0.00 in0.0 mm 0.00 in0.0 mm 0.00 in0.0 mm
02:03 AM 61.0°F16.1°C 59.2°F15.1°C 94% 6.0 mph S9.7 kmh S 17.0 mph27.4 kmh 29.62 in1003.0 mb 0.00 in0.0 mm 0.00 in0.0 mm 0.00 in0.0 mm
02:02 AM 60.8°F16.0°C 59.4°F15.2°C 95% 6.0 mph S9.7 kmh S 17.0 mph27.4 kmh 29.62 in1003.0 mb 0.00 in0.0 mm 0.00 in0.0 mm 0.00 in0.0 mm
02:01 AM 60.8°F16.0°C 59.1°F15.1°C 94% 6.0 mph S9.7 kmh S 17.0 mph27.4 kmh 29.62 in1003.0 mb 0.00 in0.0 mm 0.00 in0.0 mm 0.00 in0.0 mm
02:00 AM 60.8°F16.0°C 59.1°F15.1°C 94% 6.0 mph S9.7 kmh S 15.0 mph24.1 kmh 29.62 in1003.0 mb 0.00 in0.0 mm 0.00 in0.0 mm 0.00 in0.0 mm
01:59 AM 60.6°F15.9°C 58.9°F14.9°C 94% 6.0 mph S9.7 kmh S 15.0 mph24.1 kmh 29.62 in1003.0 mb 0.00 in0.0 mm 0.00 in0.0 mm 0.00 in0.0 mm
01:58 AM 60.6°F15.9°C 58.9°F14.9°C 94% 6.0 mph S9.7 kmh S 15.0 mph24.1 kmh 29.62 in1003.0 mb 0.00 in0.0 mm 0.00 in0.0 mm 0.00 in0.0 mm
01:57 AM 60.6°F15.9°C 58.9°F14.9°C 94% 6.0 mph S9.7 kmh S 15.0 mph24.1 kmh 29.62 in1003.0 mb 0.00 in0.0 mm 0.00 in0.0 mm 0.00 in0.0 mm
01:56 AM 60.6°F15.9°C 59.2°F15.1°C 95% 6.0 mph S9.7 kmh S 15.0 mph24.1 kmh 29.62 in1003.0 mb 0.00 in0.0 mm 0.00 in0.0 mm 0.00 in0.0 mm
01:55 AM 60.6°F15.9°C 59.2°F15.1°C 95% 6.0 mph S9.7 kmh S 15.0 mph24.1 kmh 29.63 in1003.4 mb 0.00 in0.0 mm 0.00 in0.0 mm 0.00 in0.0 mm
01:54 AM 60.6°F15.9°C 59.2°F15.1°C 95% 6.0 mph S9.7 kmh S 15.0 mph24.1 kmh 29.63 in1003.4 mb 0.00 in0.0 mm 0.00 in0.0 mm 0.00 in0.0 mm
01:53 AM 60.6°F15.9°C 59.2°F15.1°C 95% 6.0 mph S9.7 kmh S 15.0 mph24.1 kmh 29.63 in1003.4 mb 0.00 in0.0 mm 0.00 in0.0 mm 0.00 in0.0 mm
01:52 AM 60.6°F15.9°C 59.2°F15.1°C 95% 6.0 mph S9.7 kmh S 11.0 mph17.7 kmh 29.62 in1003.0 mb 0.00 in0.0 mm 0.00 in0.0 mm 0.00 in0.0 mm
01:51 AM 60.6°F15.9°C 59.2°F15.1°C 95% 6.0 mph S9.7 kmh S 11.0 mph17.7 kmh 29.62 in1003.0 mb 0.00 in0.0 mm 0.00 in0.0 mm 0.00 in0.0 mm
01:50 AM 60.6°F15.9°C 59.2°F15.1°C 95% 6.0 mph S9.7 kmh S 11.0 mph17.7 kmh 29.63 in1003.4 mb 0.00 in0.0 mm 0.00 in0.0 mm 0.00 in0.0 mm
01:49 AM 60.6°F15.9°C 59.2°F15.1°C 95% 6.0 mph S9.7 kmh S 11.0 mph17.7 kmh 29.62 in1003.0 mb 0.00 in0.0 mm 0.00 in0.0 mm 0.00 in0.0 mm
01:48 AM 60.6°F15.9°C 59.2°F15.1°C 95% 7.0 mph S11.3 kmh S 11.0 mph17.7 kmh 29.62 in1003.0 mb 0.00 in0.0 mm 0.00 in0.0 mm 0.00 in0.0 mm
01:47 AM 60.6°F15.9°C 59.2°F15.1°C 95% 7.0 mph S11.3 kmh S 11.0 mph17.7 kmh 29.62 in1003.0 mb 0.00 in0.0 mm 0.00 in0.0 mm 0.00 in0.0 mm
01:46 AM 60.6°F15.9°C 59.2°F15.1°C 95% 7.0 mph S11.3 kmh S 11.0 mph17.7 kmh 29.62 in1003.0 mb 0.00 in0.0 mm 0.00 in0.0 mm 0.00 in0.0 mm
01:45 AM 60.6°F15.9°C 59.2°F15.1°C 95% 7.0 mph S11.3 kmh S 11.0 mph17.7 kmh 29.62 in1003.0 mb 0.00 in0.0 mm 0.00 in0.0 mm 0.00 in0.0 mm
01:44 AM 60.6°F15.9°C 59.2°F15.1°C 95% 7.0 mph S11.3 kmh S 11.0 mph17.7 kmh 29.62 in1003.0 mb 0.00 in0.0 mm 0.00 in0.0 mm 0.00 in0.0 mm
01:43 AM 60.6°F15.9°C 59.2°F15.1°C 95% 7.0 mph S11.3 kmh S 11.0 mph17.7 kmh 29.62 in1003.0 mb 0.00 in0.0 mm 0.00 in0.0 mm 0.00 in0.0 mm
01:42 AM 60.6°F15.9°C 59.2°F15.1°C 95% 7.0 mph S11.3 kmh S 11.0 mph17.7 kmh 29.62 in1003.0 mb 0.00 in0.0 mm 0.00 in0.0 mm 0.00 in0.0 mm
01:41 AM 60.6°F15.9°C 59.2°F15.1°C 95% 7.0 mph S11.3 kmh S 11.0 mph17.7 kmh 29.62 in1003.0 mb 0.00 in0.0 mm 0.00 in0.0 mm 0.00 in0.0 mm
01:40 AM 60.6°F15.9°C 59.2°F15.1°C 95% 7.0 mph S11.3 kmh S 11.0 mph17.7 kmh 29.62 in1003.0 mb 0.00 in0.0 mm 0.00 in0.0 mm 0.00 in0.0 mm
01:39 AM 60.6°F15.9°C 59.2°F15.1°C 95% 7.0 mph S11.3 kmh S 11.0 mph17.7 kmh 29.62 in1003.0 mb 0.00 in0.0 mm 0.00 in0.0 mm 0.00 in0.0 mm
01:38 AM 60.4°F15.8°C 59.0°F15.0°C 95% 7.0 mph S11.3 kmh S 11.0 mph17.7 kmh 29.62 in1003.0 mb 0.00 in0.0 mm 0.00 in0.0 mm 0.00 in0.0 mm
01:37 AM 60.4°F15.8°C 59.0°F15.0°C 95% 7.0 mph S11.3 kmh S 11.0 mph17.7 kmh 29.62 in1003.0 mb 0.00 in0.0 mm 0.00 in0.0 mm 0.00 in0.0 mm
01:36 AM 60.4°F15.8°C 59.0°F15.0°C 95% 7.0 mph S11.3 kmh S 13.0 mph20.9 kmh 29.62 in1003.0 mb 0.00 in0.0 mm 0.00 in0.0 mm 0.00 in0.0 mm
01:35 AM 60.4°F15.8°C 59.0°F15.0°C 95% 7.0 mph S11.3 kmh S 13.0 mph20.9 kmh 29.62 in1003.0 mb 0.00 in0.0 mm 0.00 in0.0 mm 0.00 in0.0 mm
01:34 AM 60.4°F15.8°C 59.0°F15.0°C 95% 7.0 mph S11.3 kmh S 13.0 mph20.9 kmh 29.62 in1003.0 mb 0.00 in0.0 mm 0.00 in0.0 mm 0.00 in0.0 mm
01:33 AM 60.4°F15.8°C 59.0°F15.0°C 95% 7.0 mph S11.3 kmh S 13.0 mph20.9 kmh 29.62 in1003.0 mb 0.00 in0.0 mm 0.00 in0.0 mm 0.00 in0.0 mm
01:32 AM 60.4°F15.8°C 59.0°F15.0°C 95% 7.0 mph S11.3 kmh S 13.0 mph20.9 kmh 29.62 in1003.0 mb 0.00 in0.0 mm 0.00 in0.0 mm 0.00 in0.0 mm
01:31 AM 60.3°F15.7°C 58.8°F14.9°C 95% 8.0 mph S12.9 kmh S 13.0 mph20.9 kmh 29.62 in1003.0 mb 0.00 in0.0 mm 0.00 in0.0 mm 0.00 in0.0 mm
01:30 AM 60.3°F15.7°C 58.8°F14.9°C 95% 8.0 mph S12.9 kmh S 13.0 mph20.9 kmh 29.62 in1003.0 mb 0.00 in0.0 mm 0.00 in0.0 mm 0.00 in0.0 mm
01:29 AM 60.3°F15.7°C 58.8°F14.9°C 95% 8.0 mph S12.9 kmh S 13.0 mph20.9 kmh 29.62 in1003.0 mb 0.00 in0.0 mm 0.00 in0.0 mm 0.00 in0.0 mm
01:28 AM 60.3°F15.7°C 58.8°F14.9°C 95% 8.0 mph S12.9 kmh S 13.0 mph20.9 kmh 29.61 in1002.7 mb 0.00 in0.0 mm 0.00 in0.0 mm 0.00 in0.0 mm
01:27 AM 60.3°F15.7°C 58.8°F14.9°C 95% 8.0 mph S12.9 kmh S 13.0 mph20.9 kmh 29.61 in1002.7 mb 0.00 in0.0 mm 0.00 in0.0 mm 0.00 in0.0 mm
01:26 AM 60.3°F15.7°C 58.8°F14.9°C 95% 8.0 mph S12.9 kmh S 13.0 mph20.9 kmh 29.61 in1002.7 mb 0.00 in0.0 mm 0.00 in0.0 mm 0.00 in0.0 mm
01:25 AM 60.1°F15.6°C 58.6°F14.8°C 95% 8.0 mph S12.9 kmh S 13.0 mph20.9 kmh 29.61 in1002.7 mb 0.00 in0.0 mm 0.00 in0.0 mm 0.00 in0.0 mm
01:24 AM 60.1°F15.6°C 58.6°F14.8°C 95% 8.0 mph S12.9 kmh S 13.0 mph20.9 kmh 29.61 in1002.7 mb 0.00 in0.0 mm 0.00 in0.0 mm 0.00 in0.0 mm
01:23 AM 60.1°F15.6°C 58.9°F14.9°C 96% 8.0 mph S12.9 kmh S 13.0 mph20.9 kmh 29.61 in1002.7 mb 0.00 in0.0 mm 0.00 in0.0 mm 0.00 in0.0 mm
01:22 AM 59.9°F15.5°C 58.8°F14.9°C 96% 7.0 mph S11.3 kmh S 13.0 mph20.9 kmh 29.61 in1002.7 mb 0.00 in0.0 mm 0.00 in0.0 mm 0.00 in0.0 mm
01:21 AM 59.9°F15.5°C 58.8°F14.9°C 96% 7.0 mph S11.3 kmh S 13.0 mph20.9 kmh 29.61 in1002.7 mb 0.00 in0.0 mm 0.00 in0.0 mm 0.00 in0.0 mm
01:20 AM 59.7°F15.4°C 58.3°F14.6°C 96% 7.0 mph S11.3 kmh S 13.0 mph20.9 kmh 29.61 in1002.7 mb 0.00 in0.0 mm 0.00 in0.0 mm 0.00 in0.0 mm
01:19 AM 59.7°F15.4°C 58.3°F14.6°C 95% 7.0 mph S11.3 kmh S 13.0 mph20.9 kmh 29.62 in1003.0 mb 0.00 in0.0 mm 0.00 in0.0 mm 0.00 in0.0 mm
01:18 AM 59.7°F15.4°C 58.3°F14.6°C 95% 7.0 mph S11.3 kmh S 12.0 mph19.3 kmh 29.62 in1003.0 mb 0.00 in0.0 mm 0.00 in0.0 mm 0.00 in0.0 mm
01:17 AM 59.5°F15.3°C 58.1°F14.5°C 95% 7.0 mph S11.3 kmh S 12.0 mph19.3 kmh 29.62 in1003.0 mb 0.00 in0.0 mm 0.00 in0.0 mm 0.00 in0.0 mm
01:16 AM 59.5°F15.3°C 58.1°F14.5°C 95% 7.0 mph S11.3 kmh S 12.0 mph19.3 kmh 29.61 in1002.7 mb 0.00 in0.0 mm 0.00 in0.0 mm 0.00 in0.0 mm
01:15 AM 59.4°F15.2°C 57.9°F14.4°C 95% 7.0 mph S11.3 kmh S 12.0 mph19.3 kmh 29.61 in1002.7 mb 0.00 in0.0 mm 0.00 in0.0 mm 0.00 in0.0 mm
01:14 AM 59.4°F15.2°C 57.9°F14.4°C 95% 7.0 mph S11.3 kmh S 12.0 mph19.3 kmh 29.61 in1002.7 mb 0.00 in0.0 mm 0.00 in0.0 mm 0.00 in0.0 mm
01:13 AM 59.2°F15.1°C 57.7°F14.3°C 95% 6.0 mph S9.7 kmh S 12.0 mph19.3 kmh 29.62 in1003.0 mb 0.00 in0.0 mm 0.00 in0.0 mm 0.00 in0.0 mm
01:12 AM 59.2°F15.1°C 57.7°F14.3°C 95% 6.0 mph S9.7 kmh S 12.0 mph19.3 kmh 29.62 in1003.0 mb 0.00 in0.0 mm 0.00 in0.0 mm 0.00 in0.0 mm
01:11 AM 59.0°F15.0°C 57.6°F14.2°C 95% 6.0 mph S9.7 kmh S 12.0 mph19.3 kmh 29.61 in1002.7 mb 0.00 in0.0 mm 0.00 in0.0 mm 0.00 in0.0 mm
01:10 AM 58.8°F14.9°C 57.4°F14.1°C 95% 6.0 mph S9.7 kmh S 11.0 mph17.7 kmh 29.61 in1002.7 mb 0.00 in0.0 mm 0.00 in0.0 mm 0.00 in0.0 mm
01:09 AM 58.8°F14.9°C 57.4°F14.1°C 95% 6.0 mph SSE9.7 kmh SSE 11.0 mph17.7 kmh 29.61 in1002.7 mb 0.00 in0.0 mm 0.00 in0.0 mm 0.00 in0.0 mm
01:08 AM 58.8°F14.9°C 57.4°F14.1°C 95% 6.0 mph SSE9.7 kmh SSE 11.0 mph17.7 kmh 29.61 in1002.7 mb 0.00 in0.0 mm 0.00 in0.0 mm 0.00 in0.0 mm
01:07 AM 58.8°F14.9°C 57.4°F14.1°C 95% 5.0 mph SSE8.0 kmh SSE 11.0 mph17.7 kmh 29.61 in1002.7 mb 0.00 in0.0 mm 0.00 in0.0 mm 0.00 in0.0 mm
01:06 AM 58.8°F14.9°C 57.4°F14.1°C 95% 5.0 mph SSE8.0 kmh SSE 11.0 mph17.7 kmh 29.61 in1002.7 mb 0.00 in0.0 mm 0.00 in0.0 mm 0.00 in0.0 mm
01:05 AM 58.8°F14.9°C 57.4°F14.1°C 95% 5.0 mph SSE8.0 kmh SSE 11.0 mph17.7 kmh 29.61 in1002.7 mb 0.00 in0.0 mm 0.00 in0.0 mm 0.00 in0.0 mm
01:04 AM 58.6°F14.8°C 57.2°F14.0°C 95% 5.0 mph SSE8.0 kmh SSE 11.0 mph17.7 kmh 29.61 in1002.7 mb 0.00 in0.0 mm 0.00 in0.0 mm 0.00 in0.0 mm
01:03 AM 58.6°F14.8°C 57.2°F14.0°C 95% 5.0 mph SSE8.0 kmh SSE 11.0 mph17.7 kmh 29.61 in1002.7 mb 0.00 in0.0 mm 0.00 in0.0 mm 0.00 in0.0 mm
01:02 AM 58.6°F14.8°C 57.2°F14.0°C 95% 5.0 mph SSE8.0 kmh SSE 9.0 mph14.5 kmh 29.61 in1002.7 mb 0.00 in0.0 mm 0.00 in0.0 mm 0.00 in0.0 mm
01:01 AM 58.6°F14.8°C 57.2°F14.0°C 95% 5.0 mph SSE8.0 kmh SSE 8.0 mph12.9 kmh 29.61 in1002.7 mb 0.00 in0.0 mm 0.00 in0.0 mm 0.00 in0.0 mm
01:00 AM 58.6°F14.8°C 57.2°F14.0°C 95% 5.0 mph SSE8.0 kmh SSE 8.0 mph12.9 kmh 29.61 in1002.7 mb 0.00 in0.0 mm 0.00 in0.0 mm 0.00 in0.0 mm
12:59 AM 58.6°F14.8°C 57.2°F14.0°C 95% 5.0 mph SSE8.0 kmh SSE 8.0 mph12.9 kmh 29.61 in1002.7 mb 0.00 in0.0 mm 0.00 in0.0 mm 0.00 in0.0 mm
12:58 AM 58.8°F14.9°C 57.4°F14.1°C 95% 5.0 mph SSE8.0 kmh SSE 8.0 mph12.9 kmh 29.61 in1002.7 mb 0.00 in0.0 mm 0.00 in0.0 mm 0.00 in0.0 mm
12:57 AM 58.8°F14.9°C 57.4°F14.1°C 95% 5.0 mph SE8.0 kmh SE 11.0 mph17.7 kmh 29.61 in1002.7 mb 0.00 in0.0 mm 0.00 in0.0 mm 0.00 in0.0 mm
12:56 AM 58.8°F14.9°C 57.4°F14.1°C 95% 5.0 mph SE8.0 kmh SE 11.0 mph17.7 kmh 29.61 in1002.7 mb 0.00 in0.0 mm 0.00 in0.0 mm 0.00 in0.0 mm
12:55 AM 58.8°F14.9°C 57.4°F14.1°C 95% 5.0 mph SE8.0 kmh SE 11.0 mph17.7 kmh 29.61 in1002.7 mb 0.00 in0.0 mm 0.00 in0.0 mm 0.00 in0.0 mm
12:54 AM 58.8°F14.9°C 57.4°F14.1°C 95% 5.0 mph SE8.0 kmh SE 11.0 mph17.7 kmh 29.61 in1002.7 mb 0.00 in0.0 mm 0.00 in0.0 mm 0.00 in0.0 mm
12:53 AM 58.8°F14.9°C 57.4°F14.1°C 95% 5.0 mph SE8.0 kmh SE 11.0 mph17.7 kmh 29.61 in1002.7 mb 0.00 in0.0 mm 0.00 in0.0 mm 0.00 in0.0 mm
12:52 AM 58.8°F14.9°C 57.4°F14.1°C 95% 5.0 mph SE8.0 kmh SE 11.0 mph17.7 kmh 29.61 in1002.7 mb 0.00 in0.0 mm 0.00 in0.0 mm 0.00 in0.0 mm
12:51 AM 59.0°F15.0°C 57.6°F14.2°C 95% 5.0 mph SE8.0 kmh SE 11.0 mph17.7 kmh 29.61 in1002.7 mb 0.00 in0.0 mm 0.00 in0.0 mm 0.00 in0.0 mm
12:50 AM 59.0°F15.0°C 57.6°F14.2°C 95% 5.0 mph SE8.0 kmh SE 11.0 mph17.7 kmh 29.61 in1002.7 mb 0.00 in0.0 mm 0.00 in0.0 mm 0.00 in0.0 mm
12:49 AM 59.0°F15.0°C 57.6°F14.2°C 95% 5.0 mph SE8.0 kmh SE 11.0 mph17.7 kmh 29.61 in1002.7 mb 0.00 in0.0 mm 0.00 in0.0 mm 0.00 in0.0 mm
12:48 AM 59.0°F15.0°C 57.6°F14.2°C 95% 5.0 mph SE8.0 kmh SE 11.0 mph17.7 kmh 29.61 in1002.7 mb 0.00 in0.0 mm 0.00 in0.0 mm 0.00 in0.0 mm
12:47 AM 59.0°F15.0°C 57.6°F14.2°C 95% 5.0 mph SE8.0 kmh SE 9.0 mph14.5 kmh 29.61 in1002.7 mb 0.00 in0.0 mm 0.00 in0.0 mm 0.00 in0.0 mm
12:46 AM 59.2°F15.1°C 57.7°F14.3°C 95% 5.0 mph SE8.0 kmh SE 9.0 mph14.5 kmh 29.61 in1002.7 mb 0.00 in0.0 mm 0.00 in0.0 mm 0.00 in0.0 mm
12:45 AM 59.2°F15.1°C 57.7°F14.3°C 95% 5.0 mph SE8.0 kmh SE 9.0 mph14.5 kmh 29.61 in1002.7 mb 0.00 in0.0 mm 0.00 in0.0 mm 0.00 in0.0 mm
12:44 AM 59.2°F15.1°C 57.7°F14.3°C 95% 5.0 mph SE8.0 kmh SE 10.0 mph16.1 kmh 29.61 in1002.7 mb 0.00 in0.0 mm 0.00 in0.0 mm 0.00 in0.0 mm
12:43 AM 59.2°F15.1°C 57.7°F14.3°C 95% 5.0 mph SE8.0 kmh SE 10.0 mph16.1 kmh 29.60 in1002.4 mb 0.00 in0.0 mm 0.00 in0.0 mm 0.00 in0.0 mm
12:42 AM 59.2°F15.1°C 57.7°F14.3°C 95% 6.0 mph SE9.7 kmh SE 10.0 mph16.1 kmh 29.60 in1002.4 mb 0.00 in0.0 mm 0.00 in0.0 mm 0.00 in0.0 mm
12:41 AM 59.2°F15.1°C 57.7°F14.3°C 95% 6.0 mph SE9.7 kmh SE 10.0 mph16.1 kmh 29.61 in1002.7 mb 0.00 in0.0 mm 0.00 in0.0 mm 0.00 in0.0 mm
12:40 AM 59.2°F15.1°C 57.7°F14.3°C 95% 6.0 mph SE9.7 kmh SE 10.0 mph16.1 kmh 29.61 in1002.7 mb 0.00 in0.0 mm 0.00 in0.0 mm 0.00 in0.0 mm
12:39 AM 59.2°F15.1°C 57.7°F14.3°C 95% 6.0 mph SE9.7 kmh SE 10.0 mph16.1 kmh 29.61 in1002.7 mb 0.00 in0.0 mm 0.00 in0.0 mm 0.00 in0.0 mm
12:38 AM 59.2°F15.1°C 57.7°F14.3°C 95% 7.0 mph SE11.3 kmh SE 10.0 mph16.1 kmh 29.61 in1002.7 mb 0.00 in0.0 mm 0.00 in0.0 mm 0.00 in0.0 mm
12:37 AM 59.2°F15.1°C 57.7°F14.3°C 95% 7.0 mph SE11.3 kmh SE 10.0 mph16.1 kmh 29.61 in1002.7 mb 0.00 in0.0 mm 0.00 in0.0 mm 0.00 in0.0 mm
12:36 AM 59.2°F15.1°C 57.7°F14.3°C 95% 7.0 mph SE11.3 kmh SE 10.0 mph16.1 kmh 29.61 in1002.7 mb 0.00 in0.0 mm 0.00 in0.0 mm 0.00 in0.0 mm
12:35 AM 59.2°F15.1°C 57.7°F14.3°C 95% 7.0 mph SE11.3 kmh SE 11.0 mph17.7 kmh 29.61 in1002.7 mb 0.00 in0.0 mm 0.00 in0.0 mm 0.00 in0.0 mm
12:34 AM 59.2°F15.1°C 57.7°F14.3°C 95% 8.0 mph SE12.9 kmh SE 13.0 mph20.9 kmh 29.61 in1002.7 mb 0.00 in0.0 mm 0.00 in0.0 mm 0.00 in0.0 mm
12:33 AM 59.2°F15.1°C 57.7°F14.3°C 95% 8.0 mph SE12.9 kmh SE 13.0 mph20.9 kmh 29.60 in1002.4 mb 0.00 in0.0 mm 0.00 in0.0 mm 0.00 in0.0 mm
12:32 AM 59.2°F15.1°C 57.7°F14.3°C 95% 8.0 mph SE12.9 kmh SE 13.0 mph20.9 kmh 29.60 in1002.4 mb 0.00 in0.0 mm 0.00 in0.0 mm 0.00 in0.0 mm
12:31 AM 59.2°F15.1°C 57.7°F14.3°C 95% 8.0 mph SE12.9 kmh SE 13.0 mph20.9 kmh 29.60 in1002.4 mb 0.00 in0.0 mm 0.00 in0.0 mm 0.00 in0.0 mm
12:30 AM 59.2°F15.1°C 57.7°F14.3°C 95% 8.0 mph SE12.9 kmh SE 13.0 mph20.9 kmh 29.60 in1002.4 mb 0.00 in0.0 mm 0.00 in0.0 mm 0.00 in0.0 mm
12:29 AM 59.2°F15.1°C 57.7°F14.3°C 95% 7.0 mph SE11.3 kmh SE 13.0 mph20.9 kmh 29.60 in1002.4 mb 0.00 in0.0 mm 0.00 in0.0 mm 0.00 in0.0 mm
12:28 AM 59.2°F15.1°C 57.7°F14.3°C 95% 7.0 mph SE11.3 kmh SE 13.0 mph20.9 kmh 29.60 in1002.4 mb 0.00 in0.0 mm 0.00 in0.0 mm 0.00 in0.0 mm
12:27 AM 59.2°F15.1°C 57.7°F14.3°C 95% 7.0 mph SE11.3 kmh SE 13.0 mph20.9 kmh 29.60 in1002.4 mb 0.00 in0.0 mm 0.00 in0.0 mm 0.00 in0.0 mm
12:26 AM 59.2°F15.1°C 57.7°F14.3°C 95% 7.0 mph SE11.3 kmh SE 13.0 mph20.9 kmh 29.60 in1002.4 mb 0.00 in0.0 mm 0.00 in0.0 mm 0.00 in0.0 mm
12:25 AM 59.2°F15.1°C 57.7°F14.3°C 95% 7.0 mph SE11.3 kmh SE 13.0 mph20.9 kmh 29.60 in1002.4 mb 0.00 in0.0 mm 0.00 in0.0 mm 0.00 in0.0 mm
12:24 AM 59.4°F15.2°C 57.9°F14.4°C 95% 7.0 mph SE11.3 kmh SE 12.0 mph19.3 kmh 29.60 in1002.4 mb 0.00 in0.0 mm 0.00 in0.0 mm 0.00 in0.0 mm
12:23 AM 59.2°F15.1°C 57.7°F14.3°C 95% 7.0 mph SE11.3 kmh SE 12.0 mph19.3 kmh 29.60 in1002.4 mb 0.00 in0.0 mm 0.00 in0.0 mm 0.00 in0.0 mm
12:22 AM 59.2°F15.1°C 57.7°F14.3°C 95% 7.0 mph SE11.3 kmh SE 11.0 mph17.7 kmh 29.60 in1002.4 mb 0.00 in0.0 mm 0.00 in0.0 mm 0.00 in0.0 mm
12:21 AM 59.2°F15.1°C 57.7°F14.3°C 95% 7.0 mph SE11.3 kmh SE 11.0 mph17.7 kmh 29.60 in1002.4 mb 0.00 in0.0 mm 0.00 in0.0 mm 0.00 in0.0 mm
12:20 AM 59.2°F15.1°C 57.7°F14.3°C 95% 7.0 mph SE11.3 kmh SE 11.0 mph17.7 kmh 29.60 in1002.4 mb 0.00 in0.0 mm 0.00 in0.0 mm 0.00 in0.0 mm
12:19 AM 59.2°F15.1°C 57.7°F14.3°C 95% 7.0 mph SE11.3 kmh SE 11.0 mph17.7 kmh 29.60 in1002.4 mb 0.00 in0.0 mm 0.00 in0.0 mm 0.00 in0.0 mm
12:18 AM 59.2°F15.1°C 57.7°F14.3°C 95% 7.0 mph SE11.3 kmh SE 11.0 mph17.7 kmh 29.60 in1002.4 mb 0.00 in0.0 mm 0.00 in0.0 mm 0.00 in0.0 mm
12:17 AM 59.2°F15.1°C 57.7°F14.3°C 95% 7.0 mph SE11.3 kmh SE 11.0 mph17.7 kmh 29.60 in1002.4 mb 0.00 in0.0 mm 0.00 in0.0 mm 0.00 in0.0 mm
12:16 AM 59.2°F15.1°C 57.7°F14.3°C 95% 7.0 mph SE11.3 kmh SE 11.0 mph17.7 kmh 29.60 in1002.4 mb 0.00 in0.0 mm 0.00 in0.0 mm 0.00 in0.0 mm
12:15 AM 59.2°F15.1°C 57.7°F14.3°C 95% 7.0 mph SE11.3 kmh SE 11.0 mph17.7 kmh 29.60 in1002.4 mb 0.00 in0.0 mm 0.00 in0.0 mm 0.00 in0.0 mm
12:14 AM 59.2°F15.1°C 57.7°F14.3°C 95% 7.0 mph SE11.3 kmh SE 11.0 mph17.7 kmh 29.60 in1002.4 mb 0.00 in0.0 mm 0.00 in0.0 mm 0.00 in0.0 mm
12:13 AM 59.2°F15.1°C 57.7°F14.3°C 95% 7.0 mph SE11.3 kmh SE 11.0 mph17.7 kmh 29.60 in1002.4 mb 0.00 in0.0 mm 0.00 in0.0 mm 0.00 in0.0 mm
12:12 AM 59.2°F15.1°C 57.7°F14.3°C 95% 7.0 mph SE11.3 kmh SE 11.0 mph17.7 kmh 29.61 in1002.7 mb 0.00 in0.0 mm 0.00 in0.0 mm 0.00 in0.0 mm
12:11 AM 59.2°F15.1°C 57.7°F14.3°C 95% 7.0 mph SE11.3 kmh SE 11.0 mph17.7 kmh 29.61 in1002.7 mb 0.00 in0.0 mm 0.00 in0.0 mm 0.00 in0.0 mm
12:10 AM 59.2°F15.1°C 57.7°F14.3°C 95% 7.0 mph SE11.3 kmh SE 10.0 mph16.1 kmh 29.61 in1002.7 mb 0.00 in0.0 mm 0.00 in0.0 mm 0.00 in0.0 mm
12:09 AM 59.2°F15.1°C 57.7°F14.3°C 95% 7.0 mph SE11.3 kmh SE 10.0 mph16.1 kmh 29.61 in1002.7 mb 0.00 in0.0 mm 0.00 in0.0 mm 0.00 in0.0 mm
12:08 AM 59.0°F15.0°C 57.6°F14.2°C 95% 7.0 mph SE11.3 kmh SE 10.0 mph16.1 kmh 29.61 in1002.7 mb 0.00 in0.0 mm 0.00 in0.0 mm 0.00 in0.0 mm
12:07 AM 59.0°F15.0°C 57.6°F14.2°C 95% 7.0 mph SE11.3 kmh SE 10.0 mph16.1 kmh 29.61 in1002.7 mb 0.00 in0.0 mm 0.00 in0.0 mm 0.00 in0.0 mm
12:06 AM 59.0°F15.0°C 57.6°F14.2°C 95% 7.0 mph SE11.3 kmh SE 10.0 mph16.1 kmh 29.61 in1002.7 mb 0.00 in0.0 mm 0.00 in0.0 mm 0.00 in0.0 mm
12:05 AM 59.0°F15.0°C 57.6°F14.2°C 95% 7.0 mph SE11.3 kmh SE 10.0 mph16.1 kmh 29.61 in1002.7 mb 0.00 in0.0 mm 0.00 in0.0 mm 0.00 in0.0 mm
12:04 AM 59.0°F15.0°C 57.6°F14.2°C 95% 7.0 mph SE11.3 kmh SE 10.0 mph16.1 kmh 29.61 in1002.7 mb 0.00 in0.0 mm 0.00 in0.0 mm 0.00 in0.0 mm
12:03 AM 59.0°F15.0°C 57.6°F14.2°C 95% 7.0 mph SE11.3 kmh SE 10.0 mph16.1 kmh 29.61 in1002.7 mb 0.00 in0.0 mm 0.00 in0.0 mm 0.00 in0.0 mm
12:02 AM 58.8°F14.9°C 57.4°F14.1°C 95% 7.0 mph SE11.3 kmh SE 10.0 mph16.1 kmh 29.61 in1002.7 mb 0.00 in0.0 mm 0.00 in0.0 mm 0.00 in0.0 mm
12:01 AM 58.8°F14.9°C 57.4°F14.1°C 95% 6.0 mph SE9.7 kmh SE 9.0 mph14.5 kmh 29.61 in1002.7 mb 0.00 in0.0 mm 0.00 in0.0 mm 0.00 in0.0 mm
12:00 AM 58.8°F14.9°C 57.4°F14.1°C 95% 6.0 mph SE9.7 kmh SE 9.0 mph14.5 kmh 29.61 in1002.7 mb 0.00 in0.0 mm 0.00 in0.0 mm 0.00 in0.0 mm